Darstellungsparameter: Aktuell verwendete Einstellungen:
Skalierung der Graphiken ... ?
xyx+y,   Skalierungsfaktor:      Skalierung: Modus: x, Faktor: 1
Darstellungszeitraum ... ?
Vom - - bis: - -   Zeitraum: 29.05.2017 - 04.06.2017
Min/Max/Avg-Anzeige ... ?
Zeige MMA aktuell
Zeige MMA Monat
Zeige MMA alles
Zeige --A aktuell
Zeige --A Monat
Zeige --A alles
Keine MMA-Anzeige
MMA:
Keine MMA-Graphiken
MMA-Basis: 29.05.2017 - 04.06.2017
Quicknavigation für Darstellung... ?
Tage:      1T, 2T, 3T, 5T -1T -2T -3T -5T +1T +2T +3T +5T
Wochen: 1W, 2W, 3W -1W -2W -3W +1W +2W +3W
Monate: 1M, 3M, 6M -1M -3M -6M +1M +3M +6M
Jahre:    1J, 3J, 5J, 10J -1J -3J -5J -10J +1J +3J +5J +10J
Nutze für die Darstellung ... ?
Originaldaten oder Mittelwerte auf ...
Stundenbasis Tagesbasis Wochenbasis
Monatsbasis Jahresbasis      Datenbasis: Original-Daten
Darstellen als:
Statistik (Auto) Statistik J:M      Darstellung:
Zur Graphik,    zurück zur Übersicht aller Sensoren.
 
Tabellarische Datenbersicht: ?
 
Sensor: Nr:Datum:Temp:Feuchte:Taupunkt:
Aussen-T/F 1 29-05-2017 00:00:00 18.4 C 94 % 17.42 C
2 29-05-2017 00:05:00 18.3 C 95 % 17.48 C
3 29-05-2017 00:10:00 18.3 C 95 % 17.48 C
4 29-05-2017 00:15:00 18.2 C 95 % 17.39 C
5 29-05-2017 00:20:00 18.2 C 95 % 17.39 C
6 29-05-2017 00:25:00 18.2 C 95 % 17.39 C
7 29-05-2017 00:30:00 18.1 C 95 % 17.29 C
8 29-05-2017 00:35:00 18.1 C 95 % 17.29 C
9 29-05-2017 00:40:00 18 C 95 % 17.19 C
10 29-05-2017 00:45:00 17.9 C 95 % 17.09 C
11 29-05-2017 00:50:00 17.8 C 95 % 16.99 C
12 29-05-2017 00:55:00 17.8 C 95 % 16.99 C
13 29-05-2017 01:00:00 17.8 C 95 % 16.99 C
14 29-05-2017 01:05:00 17.7 C 95 % 16.89 C
15 29-05-2017 01:10:00 17.6 C 95 % 16.79 C
16 29-05-2017 01:15:00 17.6 C 95 % 16.79 C
17 29-05-2017 01:20:00 17.6 C 95 % 16.79 C
18 29-05-2017 01:25:00 17.6 C 95 % 16.79 C
19 29-05-2017 01:30:00 17.5 C 95 % 16.69 C
20 29-05-2017 01:35:00 17.5 C 95 % 16.69 C
21 29-05-2017 01:40:00 17.4 C 95 % 16.59 C
22 29-05-2017 01:45:00 17.3 C 95 % 16.49 C
23 29-05-2017 01:50:00 17.3 C 95 % 16.49 C
24 29-05-2017 01:55:00 17.3 C 95 % 16.49 C
25 29-05-2017 02:00:00 17.3 C 95 % 16.49 C
Sensor: Nr:Datum:Temp:Feuchte:Taupunkt:
Aussen-T/F 26 29-05-2017 02:05:00 17.2 C 95 % 16.39 C
27 29-05-2017 02:10:00 17.1 C 95 % 16.29 C
28 29-05-2017 02:15:00 17.1 C 95 % 16.29 C
29 29-05-2017 02:20:00 16.9 C 95 % 16.09 C
30 29-05-2017 02:25:00 16.9 C 95 % 16.09 C
31 29-05-2017 02:30:00 16.9 C 96 % 16.26 C
32 29-05-2017 02:35:00 17 C 96 % 16.36 C
33 29-05-2017 02:40:00 16.9 C 96 % 16.26 C
34 29-05-2017 02:45:00 16.8 C 96 % 16.16 C
35 29-05-2017 02:50:00 16.8 C 95 % 15.99 C
36 29-05-2017 02:55:00 16.7 C 95 % 15.9 C
37 29-05-2017 03:00:00 16.7 C 96 % 16.06 C
38 29-05-2017 03:05:00 16.7 C 96 % 16.06 C
39 29-05-2017 03:10:00 16.7 C 96 % 16.06 C
40 29-05-2017 03:15:00 16.6 C 96 % 15.96 C
41 29-05-2017 03:20:00 16.4 C 96 % 15.76 C
42 29-05-2017 03:25:00 16.4 C 96 % 15.76 C
43 29-05-2017 03:30:00 16.4 C 96 % 15.76 C
44 29-05-2017 03:35:00 16.4 C 96 % 15.76 C
45 29-05-2017 03:40:00 16.5 C 96 % 15.86 C
46 29-05-2017 03:45:00 16.5 C 96 % 15.86 C
47 29-05-2017 03:50:00 16.5 C 96 % 15.86 C
48 29-05-2017 03:55:00 16.5 C 96 % 15.86 C
49 29-05-2017 04:00:00 16.5 C 96 % 15.86 C
50 29-05-2017 04:05:00 16.6 C 96 % 15.96 C
Sensor: Nr:Datum:Temp:Feuchte:Taupunkt:
Aussen-T/F 51 29-05-2017 04:10:00 16.6 C 96 % 15.96 C
52 29-05-2017 04:15:00 16.7 C 96 % 16.06 C
53 29-05-2017 04:20:00 16.7 C 96 % 16.06 C
54 29-05-2017 04:25:00 16.8 C 96 % 16.16 C
55 29-05-2017 04:30:00 16.8 C 96 % 16.16 C
56 29-05-2017 04:35:00 16.9 C 96 % 16.26 C
57 29-05-2017 04:40:00 17 C 97 % 16.52 C
58 29-05-2017 04:45:00 17.1 C 97 % 16.62 C
59 29-05-2017 04:50:00 17.1 C 96 % 16.46 C
60 29-05-2017 04:55:00 17 C 96 % 16.36 C
61 29-05-2017 05:00:00 17 C 96 % 16.36 C
62 29-05-2017 05:05:00 17 C 96 % 16.36 C
63 29-05-2017 05:10:00 16.9 C 96 % 16.26 C
64 29-05-2017 05:15:00 17 C 97 % 16.52 C
65 29-05-2017 05:20:00 17 C 97 % 16.52 C
66 29-05-2017 05:25:00 17.1 C 97 % 16.62 C
67 29-05-2017 05:30:00 17.1 C 97 % 16.62 C
68 29-05-2017 05:35:00 17.1 C 97 % 16.62 C
69 29-05-2017 05:40:00 17.1 C 96 % 16.46 C
70 29-05-2017 05:45:00 17 C 96 % 16.36 C
71 29-05-2017 05:50:00 17 C 97 % 16.52 C
72 29-05-2017 05:55:00 17.1 C 97 % 16.62 C
73 29-05-2017 06:00:00 17.1 C 97 % 16.62 C
74 29-05-2017 06:05:00 17.1 C 97 % 16.62 C
75 29-05-2017 06:10:00 17.1 C 97 % 16.62 C
Sensor: Nr:Datum:Temp:Feuchte:Taupunkt:
Aussen-T/F 76 29-05-2017 06:15:00 17.1 C 97 % 16.62 C
77 29-05-2017 06:20:00 17 C 97 % 16.52 C
78 29-05-2017 06:25:00 17.1 C 97 % 16.62 C
79 29-05-2017 06:30:00 17.2 C 97 % 16.72 C
80 29-05-2017 06:35:00 17.2 C 97 % 16.72 C
81 29-05-2017 06:40:00 17.3 C 97 % 16.82 C
82 29-05-2017 06:45:00 17.4 C 97 % 16.92 C
83 29-05-2017 06:50:00 17.4 C 97 % 16.92 C
84 29-05-2017 06:55:00 17.4 C 97 % 16.92 C
85 29-05-2017 07:00:00 17.4 C 97 % 16.92 C
86 29-05-2017 07:05:00 17.4 C 97 % 16.92 C
87 29-05-2017 07:10:00 17.4 C 97 % 16.92 C
88 29-05-2017 07:15:00 17.4 C 97 % 16.92 C
89 29-05-2017 07:20:00 17.4 C 97 % 16.92 C
90 29-05-2017 07:25:00 17.4 C 97 % 16.92 C
91 29-05-2017 07:30:00 17.4 C 97 % 16.92 C
92 29-05-2017 07:35:00 17.3 C 97 % 16.82 C
93 29-05-2017 07:40:00 17.3 C 97 % 16.82 C
94 29-05-2017 07:45:00 17.3 C 97 % 16.82 C
95 29-05-2017 07:50:00 17.4 C 97 % 16.92 C
96 29-05-2017 07:55:00 17.4 C 97 % 16.92 C
97 29-05-2017 08:00:00 17.4 C 97 % 16.92 C
98 29-05-2017 08:05:00 17.4 C 97 % 16.92 C
99 29-05-2017 08:10:00 17.5 C 97 % 17.02 C
100 29-05-2017 08:15:00 17.6 C 97 % 17.12 C
Sensor: Nr:Datum:Temp:Feuchte:Taupunkt:
Aussen-T/F 101 29-05-2017 08:20:00 17.7 C 97 % 17.22 C
102 29-05-2017 08:25:00 17.7 C 97 % 17.22 C
103 29-05-2017 08:30:00 17.7 C 97 % 17.22 C
104 29-05-2017 08:35:00 17.8 C 97 % 17.32 C
105 29-05-2017 08:40:00 17.8 C 97 % 17.32 C
106 29-05-2017 08:45:00 17.9 C 97 % 17.42 C
107 29-05-2017 08:50:00 18 C 97 % 17.52 C
108 29-05-2017 08:55:00 18.1 C 97 % 17.62 C
109 29-05-2017 09:00:00 18.2 C 97 % 17.72 C
110 29-05-2017 09:05:00 18.3 C 97 % 17.82 C
111 29-05-2017 09:10:00 18.4 C 97 % 17.91 C
112 29-05-2017 09:15:00 18.5 C 97 % 18.01 C
113 29-05-2017 09:20:00 18.6 C 97 % 18.11 C
114 29-05-2017 09:25:00 18.7 C 97 % 18.21 C
115 29-05-2017 09:30:00 18.9 C 97 % 18.41 C
116 29-05-2017 09:35:00 19 C 97 % 18.51 C
117 29-05-2017 09:40:00 19.2 C 97 % 18.71 C
118 29-05-2017 09:45:00 19.3 C 97 % 18.81 C
119 29-05-2017 09:50:00 19.5 C 97 % 19.01 C
120 29-05-2017 09:55:00 19.7 C 97 % 19.21 C
121 29-05-2017 10:00:00 19.7 C 97 % 19.21 C
122 29-05-2017 10:05:00 19.9 C 97 % 19.41 C
123 29-05-2017 10:10:00 19.9 C 97 % 19.41 C
124 29-05-2017 10:15:00 20.1 C 97 % 19.61 C
125 29-05-2017 10:20:00 20.3 C 97 % 19.81 C
Sensor: Nr:Datum:Temp:Feuchte:Taupunkt:
Aussen-T/F 126 29-05-2017 10:25:00 20.6 C 97 % 20.11 C
127 29-05-2017 10:30:00 20.8 C 97 % 20.31 C
128 29-05-2017 10:35:00 21.1 C 97 % 20.6 C
129 29-05-2017 10:40:00 21.2 C 97 % 20.7 C
130 29-05-2017 10:45:00 21.3 C 97 % 20.8 C
131 29-05-2017 10:50:00 21.3 C 97 % 20.8 C
132 29-05-2017 10:55:00 21.6 C 96 % 20.93 C
133 29-05-2017 11:00:00 21.7 C 96 % 21.03 C
134 29-05-2017 11:05:00 21.8 C 96 % 21.13 C
135 29-05-2017 11:10:00 22.1 C 96 % 21.43 C
136 29-05-2017 11:15:00 22.3 C 96 % 21.63 C
137 29-05-2017 11:20:00 22.4 C 96 % 21.73 C
138 29-05-2017 11:25:00 22.7 C 95 % 21.86 C
139 29-05-2017 11:30:00 22.8 C 95 % 21.96 C
140 29-05-2017 11:35:00 23 C 93 % 21.81 C
141 29-05-2017 11:40:00 23.2 C 92 % 21.83 C
142 29-05-2017 11:45:00 23.4 C 89 % 21.48 C
143 29-05-2017 11:50:00 23.8 C 87 % 21.5 C
144 29-05-2017 11:55:00 24.1 C 87 % 21.8 C
145 29-05-2017 12:00:00 24.6 C 82 % 21.32 C
146 29-05-2017 12:05:00 25.1 C 82 % 21.81 C
147 29-05-2017 12:10:00 25.4 C 77 % 21.07 C
148 29-05-2017 12:15:00 25.6 C 76 % 21.05 C
149 29-05-2017 12:20:00 25.8 C 80 % 22.08 C
150 29-05-2017 12:25:00 25.9 C 72 % 20.46 C
Sensor: Nr:Datum:Temp:Feuchte:Taupunkt:
Aussen-T/F 151 29-05-2017 12:30:00 26.2 C 69 % 20.06 C
152 29-05-2017 12:35:00 26.6 C 70 % 20.67 C
153 29-05-2017 12:40:00 26.7 C 71 % 21 C
154 29-05-2017 12:45:00 26.9 C 68 % 20.49 C
155 29-05-2017 12:50:00 27.2 C 69 % 21.01 C
156 29-05-2017 12:55:00 27.3 C 66 % 20.39 C
157 29-05-2017 13:00:00 27.6 C 60 % 19.13 C
158 29-05-2017 13:05:00 27.8 C 64 % 20.36 C
159 29-05-2017 13:10:00 27.9 C 58 % 18.87 C
160 29-05-2017 13:15:00 28.1 C 67 % 21.39 C
161 29-05-2017 13:20:00 27.9 C 56 % 18.31 C
162 29-05-2017 13:25:00 28.1 C 52 % 17.32 C
163 29-05-2017 13:30:00 28.3 C 60 % 19.79 C
164 29-05-2017 13:35:00 28.3 C 54 % 18.1 C
165 29-05-2017 13:40:00 28.3 C 51 % 17.19 C
166 29-05-2017 13:45:00 28.5 C 50 % 17.06 C
167 29-05-2017 13:50:00 28.8 C 48 % 16.69 C
168 29-05-2017 13:55:00 29.1 C 53 % 18.54 C
169 29-05-2017 14:00:00 29.3 C 51 % 18.11 C
170 29-05-2017 14:05:00 29.6 C 51 % 18.39 C
171 29-05-2017 14:10:00 29.7 C 49 % 17.84 C
172 29-05-2017 14:15:00 29.7 C 46 % 16.84 C
173 29-05-2017 14:20:00 29.8 C 50 % 18.25 C
174 29-05-2017 14:25:00 29.8 C 48 % 17.61 C
175 29-05-2017 14:30:00 30 C 47 % 17.45 C
Sensor: Nr:Datum:Temp:Feuchte:Taupunkt:
Aussen-T/F 176 29-05-2017 14:35:00 30.2 C 47 % 17.64 C
177 29-05-2017 14:40:00 30.2 C 49 % 18.3 C
178 29-05-2017 14:45:00 30.2 C 44 % 16.59 C
179 29-05-2017 14:50:00 30.3 C 45 % 17.04 C
180 29-05-2017 14:55:00 30.7 C 45 % 17.4 C
181 29-05-2017 15:00:00 30.7 C 44 % 17.04 C
182 29-05-2017 15:05:00 30.8 C 46 % 17.84 C
183 29-05-2017 15:10:00 31 C 45 % 17.67 C
184 29-05-2017 15:15:00 31.3 C 48 % 18.97 C
185 29-05-2017 15:20:00 31.6 C 44 % 17.85 C
186 29-05-2017 15:25:00 31.9 C 47 % 19.18 C
187 29-05-2017 15:30:00 32.1 C 44 % 18.3 C
188 29-05-2017 15:35:00 32.3 C 52 % 21.18 C
189 29-05-2017 15:40:00 32.8 C 46 % 19.65 C
190 29-05-2017 15:45:00 33.2 C 45 % 19.66 C
191 29-05-2017 15:50:00 33.4 C 35 % 15.85 C
192 29-05-2017 15:55:00 33.6 C 36 % 16.46 C
193 29-05-2017 16:00:00 33.8 C 36 % 16.64 C
194 29-05-2017 16:05:00 34.1 C 39 % 18.17 C
195 29-05-2017 16:10:00 34.1 C 38 % 17.76 C
196 29-05-2017 16:15:00 34.1 C 34 % 16 C
197 29-05-2017 16:20:00 34 C 36 % 16.81 C
198 29-05-2017 16:25:00 34.2 C 45 % 20.56 C
199 29-05-2017 16:30:00 34.4 C 41 % 19.24 C
200 29-05-2017 16:35:00 34.6 C 35 % 16.89 C
Sensor: Nr:Datum:Temp:Feuchte:Taupunkt:
Aussen-T/F 201 29-05-2017 16:40:00 34.8 C 33 % 16.14 C
202 29-05-2017 16:45:00 34.9 C 40 % 19.28 C
203 29-05-2017 16:50:00 35 C 37 % 18.13 C
204 29-05-2017 16:55:00 35 C 33 % 16.32 C
205 29-05-2017 17:00:00 35.1 C 32 % 15.92 C
206 29-05-2017 17:05:00 35.2 C 29 % 14.48 C
207 29-05-2017 17:10:00 35.2 C 33 % 16.49 C
208 29-05-2017 17:15:00 35.2 C 39 % 19.14 C
209 29-05-2017 17:20:00 35.3 C 37 % 18.39 C
210 29-05-2017 17:25:00 35.5 C 36 % 18.13 C
211 29-05-2017 17:30:00 35.6 C 33 % 16.84 C
212 29-05-2017 17:35:00 35.5 C 39 % 19.41 C
213 29-05-2017 17:40:00 35.6 C 37 % 18.65 C
214 29-05-2017 17:45:00 35.6 C 33 % 16.84 C
215 29-05-2017 17:50:00 35.6 C 32 % 16.35 C
216 29-05-2017 17:55:00 35.3 C 33 % 16.58 C
217 29-05-2017 18:00:00 35.3 C 39 % 19.23 C
218 29-05-2017 18:05:00 35.4 C 37 % 18.48 C
219 29-05-2017 18:10:00 35.4 C 40 % 19.73 C
220 29-05-2017 18:15:00 34.9 C 42 % 20.07 C
221 29-05-2017 18:20:00 34.6 C 39 % 18.61 C
222 29-05-2017 18:25:00 34.4 C 39 % 18.43 C
223 29-05-2017 18:30:00 34.4 C 45 % 20.74 C
224 29-05-2017 18:35:00 34.4 C 44 % 20.37 C
225 29-05-2017 18:40:00 34.3 C 44 % 20.28 C
Sensor: Nr:Datum:Temp:Feuchte:Taupunkt:
Aussen-T/F 226 29-05-2017 18:45:00 33.8 C 43 % 19.46 C
227 29-05-2017 18:50:00 33.7 C 46 % 20.46 C
228 29-05-2017 18:55:00 33.8 C 48 % 21.25 C
229 29-05-2017 19:00:00 33.8 C 46 % 20.55 C
230 29-05-2017 19:05:00 33.8 C 42 % 19.09 C
231 29-05-2017 19:10:00 33.7 C 46 % 20.46 C
232 29-05-2017 19:15:00 33.4 C 43 % 19.11 C
233 29-05-2017 19:20:00 33.1 C 47 % 20.27 C
234 29-05-2017 19:25:00 32.5 C 46 % 19.38 C
235 29-05-2017 19:30:00 31.9 C 47 % 19.18 C
236 29-05-2017 19:35:00 31.3 C 48 % 18.97 C
237 29-05-2017 19:40:00 30.7 C 49 % 18.75 C
238 29-05-2017 19:45:00 29.9 C 50 % 18.35 C
239 29-05-2017 19:50:00 29.3 C 53 % 18.73 C
240 29-05-2017 19:55:00 28.7 C 54 % 18.47 C
241 29-05-2017 20:00:00 28.2 C 56 % 18.59 C
242 29-05-2017 20:05:00 27.7 C 57 % 18.41 C
243 29-05-2017 20:10:00 27.3 C 58 % 18.31 C
244 29-05-2017 20:15:00 27 C 58 % 18.03 C
245 29-05-2017 20:20:00 26.8 C 60 % 18.38 C
246 29-05-2017 20:25:00 26.5 C 60 % 18.1 C
247 29-05-2017 20:30:00 26.2 C 61 % 18.08 C
248 29-05-2017 20:35:00 26 C 61 % 17.9 C
249 29-05-2017 20:40:00 25.8 C 62 % 17.97 C
250 29-05-2017 20:45:00 25.6 C 63 % 18.03 C
Sensor: Nr:Datum:Temp:Feuchte:Taupunkt:
Aussen-T/F 251 29-05-2017 20:50:00 25.3 C 64 % 18 C
252 29-05-2017 20:55:00 25.2 C 65 % 18.15 C
253 29-05-2017 21:00:00 24.9 C 65 % 17.87 C
254 29-05-2017 21:05:00 24.8 C 66 % 18.01 C
255 29-05-2017 21:10:00 24.7 C 67 % 18.16 C
256 29-05-2017 21:15:00 24.5 C 67 % 17.97 C
257 29-05-2017 21:20:00 24.3 C 68 % 18.01 C
258 29-05-2017 21:25:00 24.2 C 68 % 17.92 C
259 29-05-2017 21:30:00 24.1 C 69 % 18.06 C
260 29-05-2017 21:35:00 23.9 C 69 % 17.87 C
261 29-05-2017 21:40:00 23.8 C 70 % 18 C
262 29-05-2017 21:45:00 23.7 C 70 % 17.9 C
263 29-05-2017 21:50:00 23.5 C 71 % 17.94 C
264 29-05-2017 21:55:00 23.4 C 71 % 17.84 C
265 29-05-2017 22:00:00 23.2 C 71 % 17.65 C
266 29-05-2017 22:05:00 23.1 C 72 % 17.78 C
267 29-05-2017 22:10:00 23 C 72 % 17.68 C
268 29-05-2017 22:15:00 22.9 C 73 % 17.8 C
269 29-05-2017 22:20:00 22.7 C 73 % 17.61 C
270 29-05-2017 22:25:00 22.6 C 73 % 17.51 C
271 29-05-2017 22:30:00 22.6 C 74 % 17.73 C
272 29-05-2017 22:35:00 22.5 C 74 % 17.63 C
273 29-05-2017 22:40:00 22.4 C 74 % 17.54 C
274 29-05-2017 22:45:00 22.3 C 74 % 17.44 C
275 29-05-2017 22:50:00 22.3 C 74 % 17.44 C
Sensor: Nr:Datum:Temp:Feuchte:Taupunkt:
Aussen-T/F 276 29-05-2017 22:55:00 22.4 C 74 % 17.54 C
277 29-05-2017 23:00:00 22.4 C 73 % 17.32 C
278 29-05-2017 23:05:00 22.4 C 75 % 17.75 C
279 29-05-2017 23:10:00 22.3 C 74 % 17.44 C
280 29-05-2017 23:15:00 22.2 C 75 % 17.56 C
281 29-05-2017 23:20:00 22 C 76 % 17.57 C
282 29-05-2017 23:25:00 21.8 C 76 % 17.38 C
283 29-05-2017 23:30:00 21.6 C 77 % 17.39 C
284 29-05-2017 23:35:00 21.4 C 77 % 17.2 C
285 29-05-2017 23:40:00 21.3 C 78 % 17.31 C
286 29-05-2017 23:45:00 21.1 C 78 % 17.11 C
287 29-05-2017 23:50:00 20.8 C 79 % 17.02 C
288 29-05-2017 23:55:00 20.7 C 80 % 17.13 C
289 30-05-2017 00:00:00 20.6 C 80 % 17.03 C
290 30-05-2017 00:05:00 20.6 C 80 % 17.03 C
291 30-05-2017 00:10:00 20.5 C 80 % 16.93 C
292 30-05-2017 00:15:00 20.4 C 81 % 17.03 C
293 30-05-2017 00:20:00 20.3 C 81 % 16.93 C
294 30-05-2017 00:25:00 20.3 C 80 % 16.74 C
295 30-05-2017 00:30:00 20.2 C 81 % 16.84 C
296 30-05-2017 00:35:00 20.1 C 81 % 16.74 C
297 30-05-2017 00:40:00 19.9 C 81 % 16.54 C
298 30-05-2017 00:45:00 19.8 C 82 % 16.64 C
299 30-05-2017 00:50:00 19.8 C 82 % 16.64 C
300 30-05-2017 00:55:00 19.8 C 82 % 16.64 C
Sensor: Nr:Datum:Temp:Feuchte:Taupunkt:
Aussen-T/F 301 30-05-2017 01:00:00 19.7 C 82 % 16.54 C
302 30-05-2017 01:05:00 19.6 C 82 % 16.44 C
303 30-05-2017 01:10:00 19.4 C 83 % 16.44 C
304 30-05-2017 01:15:00 19.3 C 83 % 16.34 C
305 30-05-2017 01:20:00 19.2 C 84 % 16.43 C
306 30-05-2017 01:25:00 19.2 C 83 % 16.24 C
307 30-05-2017 01:30:00 19.1 C 83 % 16.15 C
308 30-05-2017 01:35:00 18.9 C 84 % 16.14 C
309 30-05-2017 01:40:00 18.8 C 84 % 16.04 C
310 30-05-2017 01:45:00 18.7 C 83 % 15.75 C
311 30-05-2017 01:50:00 18.6 C 85 % 16.03 C
312 30-05-2017 01:55:00 18.7 C 85 % 16.13 C
313 30-05-2017 02:00:00 18.7 C 85 % 16.13 C
314 30-05-2017 02:05:00 18.8 C 85 % 16.23 C
315 30-05-2017 02:10:00 18.8 C 86 % 16.41 C
316 30-05-2017 02:15:00 18.7 C 86 % 16.31 C
317 30-05-2017 02:20:00 18.7 C 86 % 16.31 C
318 30-05-2017 02:25:00 18.6 C 85 % 16.03 C
319 30-05-2017 02:30:00 18.4 C 85 % 15.83 C
320 30-05-2017 02:35:00 18.4 C 86 % 16.02 C
321 30-05-2017 02:40:00 18.5 C 87 % 16.3 C
322 30-05-2017 02:45:00 18.5 C 86 % 16.11 C
323 30-05-2017 02:50:00 18.5 C 87 % 16.3 C
324 30-05-2017 02:55:00 18.4 C 87 % 16.2 C
325 30-05-2017 03:00:00 18.3 C 87 % 16.1 C
Sensor: Nr:Datum:Temp:Feuchte:Taupunkt:
Aussen-T/F 326 30-05-2017 03:05:00 18.3 C 87 % 16.1 C
327 30-05-2017 03:10:00 18.3 C 87 % 16.1 C
328 30-05-2017 03:15:00 18.3 C 87 % 16.1 C
329 30-05-2017 03:20:00 18.2 C 88 % 16.18 C
330 30-05-2017 03:25:00 18.2 C 88 % 16.18 C
331 30-05-2017 03:30:00 18.2 C 88 % 16.18 C
332 30-05-2017 03:35:00 18.1 C 88 % 16.08 C
333 30-05-2017 03:40:00 18.1 C 88 % 16.08 C
334 30-05-2017 03:45:00 18 C 88 % 15.98 C
335 30-05-2017 03:50:00 18 C 88 % 15.98 C
336 30-05-2017 03:55:00 17.9 C 89 % 16.06 C
337 30-05-2017 04:00:00 17.9 C 89 % 16.06 C
338 30-05-2017 04:05:00 18 C 89 % 16.16 C
339 30-05-2017 04:10:00 18 C 89 % 16.16 C
340 30-05-2017 04:15:00 18.1 C 89 % 16.26 C
341 30-05-2017 04:20:00 18.1 C 89 % 16.26 C
342 30-05-2017 04:25:00 18.1 C 89 % 16.26 C
343 30-05-2017 04:30:00 18.1 C 89 % 16.26 C
344 30-05-2017 04:35:00 18.1 C 89 % 16.26 C
345 30-05-2017 04:40:00 18.1 C 89 % 16.26 C
346 30-05-2017 04:45:00 18.2 C 89 % 16.36 C
347 30-05-2017 04:50:00 18.2 C 89 % 16.36 C
348 30-05-2017 04:55:00 18.2 C 88 % 16.18 C
349 30-05-2017 05:00:00 18.2 C 88 % 16.18 C
350 30-05-2017 05:05:00 18.2 C 88 % 16.18 C
Sensor: Nr:Datum:Temp:Feuchte:Taupunkt:
Aussen-T/F 351 30-05-2017 05:10:00 18.2 C 88 % 16.18 C
352 30-05-2017 05:15:00 18.2 C 89 % 16.36 C
353 30-05-2017 05:20:00 18.2 C 89 % 16.36 C
354 30-05-2017 05:25:00 18.2 C 89 % 16.36 C
355 30-05-2017 05:30:00 18.2 C 89 % 16.36 C
356 30-05-2017 05:35:00 18.2 C 89 % 16.36 C
357 30-05-2017 05:40:00 18.2 C 90 % 16.53 C
358 30-05-2017 05:45:00 18.2 C 90 % 16.53 C
359 30-05-2017 05:50:00 18.2 C 90 % 16.53 C
360 30-05-2017 05:55:00 18.2 C 90 % 16.53 C
361 30-05-2017 06:00:00 18.2 C 90 % 16.53 C
362 30-05-2017 06:05:00 18.1 C 90 % 16.43 C
363 30-05-2017 06:10:00 18.1 C 90 % 16.43 C
364 30-05-2017 06:15:00 18.1 C 90 % 16.43 C
365 30-05-2017 06:20:00 18.1 C 90 % 16.43 C
366 30-05-2017 06:25:00 18 C 90 % 16.34 C
367 30-05-2017 06:30:00 17.9 C 90 % 16.24 C
368 30-05-2017 06:35:00 17.9 C 90 % 16.24 C
369 30-05-2017 06:40:00 17.8 C 91 % 16.31 C
370 30-05-2017 06:45:00 17.8 C 91 % 16.31 C
371 30-05-2017 06:50:00 17.7 C 91 % 16.21 C
372 30-05-2017 06:55:00 17.7 C 91 % 16.21 C
373 30-05-2017 07:00:00 17.8 C 92 % 16.48 C
374 30-05-2017 07:05:00 17.9 C 92 % 16.58 C
375 30-05-2017 07:10:00 18.1 C 92 % 16.78 C
Sensor: Nr:Datum:Temp:Feuchte:Taupunkt:
Aussen-T/F 376 30-05-2017 07:15:00 18.2 C 92 % 16.88 C
377 30-05-2017 07:20:00 18.2 C 92 % 16.88 C
378 30-05-2017 07:25:00 18.3 C 92 % 16.98 C
379 30-05-2017 07:30:00 18.4 C 91 % 16.9 C
380 30-05-2017 07:35:00 18.6 C 91 % 17.1 C
381 30-05-2017 07:40:00 18.7 C 91 % 17.2 C
382 30-05-2017 07:45:00 18.8 C 92 % 17.47 C
383 30-05-2017 07:50:00 18.9 C 91 % 17.4 C
384 30-05-2017 07:55:00 19.1 C 91 % 17.6 C
385 30-05-2017 08:00:00 19.2 C 90 % 17.52 C
386 30-05-2017 08:05:00 19.3 C 90 % 17.62 C
387 30-05-2017 08:10:00 19.6 C 90 % 17.91 C
388 30-05-2017 08:15:00 19.7 C 89 % 17.84 C
389 30-05-2017 08:20:00 19.8 C 90 % 18.11 C
390 30-05-2017 08:25:00 19.9 C 90 % 18.21 C
391 30-05-2017 08:30:00 20.1 C 89 % 18.23 C
392 30-05-2017 08:35:00 20.1 C 89 % 18.23 C
393 30-05-2017 08:40:00 20.2 C 89 % 18.33 C
394 30-05-2017 08:45:00 20.2 C 89 % 18.33 C
395 30-05-2017 08:50:00 20.2 C 88 % 18.15 C
396 30-05-2017 08:55:00 20.3 C 87 % 18.06 C
397 30-05-2017 09:00:00 20.4 C 88 % 18.34 C
398 30-05-2017 09:05:00 20.6 C 88 % 18.54 C
399 30-05-2017 09:10:00 20.6 C 88 % 18.54 C
400 30-05-2017 09:15:00 20.7 C 86 % 18.27 C
Sensor: Nr:Datum:Temp:Feuchte:Taupunkt:
Aussen-T/F 401 30-05-2017 09:20:00 20.8 C 87 % 18.56 C
402 30-05-2017 09:25:00 21 C 87 % 18.75 C
403 30-05-2017 09:30:00 21.1 C 86 % 18.67 C
404 30-05-2017 09:35:00 21.2 C 86 % 18.76 C
405 30-05-2017 09:40:00 21.1 C 86 % 18.67 C
406 30-05-2017 09:45:00 21.1 C 86 % 18.67 C
407 30-05-2017 09:50:00 21.1 C 85 % 18.48 C
408 30-05-2017 09:55:00 21.2 C 84 % 18.39 C
409 30-05-2017 10:00:00 21.4 C 84 % 18.58 C
410 30-05-2017 10:05:00 21.6 C 82 % 18.39 C
411 30-05-2017 10:10:00 21.7 C 81 % 18.3 C
412 30-05-2017 10:15:00 22 C 79 % 18.19 C
413 30-05-2017 10:20:00 22.4 C 79 % 18.58 C
414 30-05-2017 10:25:00 22.9 C 75 % 18.23 C
415 30-05-2017 10:30:00 23.4 C 72 % 18.06 C
416 30-05-2017 10:35:00 23.8 C 71 % 18.22 C
417 30-05-2017 10:40:00 24.2 C 70 % 18.38 C
418 30-05-2017 10:45:00 24.4 C 67 % 17.87 C
419 30-05-2017 10:50:00 24.6 C 69 % 18.53 C
420 30-05-2017 10:55:00 24.7 C 70 % 18.86 C
421 30-05-2017 11:00:00 24.7 C 70 % 18.86 C
422 30-05-2017 11:05:00 24.6 C 70 % 18.76 C
423 30-05-2017 11:10:00 24.6 C 66 % 17.83 C
424 30-05-2017 11:15:00 24.5 C 69 % 18.44 C
425 30-05-2017 11:20:00 24.4 C 70 % 18.57 C
Sensor: Nr:Datum:Temp:Feuchte:Taupunkt:
Aussen-T/F 426 30-05-2017 11:25:00 24.5 C 71 % 18.89 C
427 30-05-2017 11:30:00 24.4 C 69 % 18.34 C
428 30-05-2017 11:35:00 24.5 C 67 % 17.97 C
429 30-05-2017 11:40:00 24.6 C 63 % 17.09 C
430 30-05-2017 11:45:00 24.8 C 69 % 18.72 C
431 30-05-2017 11:50:00 24.9 C 67 % 18.35 C
432 30-05-2017 11:55:00 25.1 C 64 % 17.81 C
433 30-05-2017 12:00:00 25.2 C 66 % 18.39 C
434 30-05-2017 12:05:00 25.3 C 63 % 17.75 C
435 30-05-2017 12:10:00 25.5 C 63 % 17.94 C
436 30-05-2017 12:15:00 25.7 C 62 % 17.87 C
437 30-05-2017 12:20:00 25.9 C 63 % 18.31 C
438 30-05-2017 12:25:00 26 C 63 % 18.41 C
439 30-05-2017 12:30:00 26.1 C 62 % 18.25 C
440 30-05-2017 12:35:00 26.2 C 61 % 18.08 C
441 30-05-2017 12:40:00 26.3 C 60 % 17.91 C
442 30-05-2017 12:45:00 26.4 C 62 % 18.53 C
443 30-05-2017 12:50:00 26.4 C 62 % 18.53 C
444 30-05-2017 12:55:00 26.4 C 61 % 18.27 C
445 30-05-2017 13:00:00 26.5 C 67 % 19.87 C
446 30-05-2017 13:05:00 26.6 C 59 % 17.93 C
447 30-05-2017 13:10:00 26.8 C 61 % 18.65 C
448 30-05-2017 13:15:00 27.1 C 58 % 18.12 C
449 30-05-2017 13:20:00 27.2 C 60 % 18.76 C
450 30-05-2017 13:25:00 27.3 C 58 % 18.31 C
Sensor: Nr:Datum:Temp:Feuchte:Taupunkt:
Aussen-T/F 451 30-05-2017 13:30:00 27.3 C 57 % 18.03 C
452 30-05-2017 13:35:00 27.2 C 58 % 18.22 C
453 30-05-2017 13:40:00 27.2 C 59 % 18.49 C
454 30-05-2017 13:45:00 27.3 C 60 % 18.85 C
455 30-05-2017 13:50:00 27.4 C 57 % 18.13 C
456 30-05-2017 13:55:00 27.6 C 53 % 17.16 C
457 30-05-2017 14:00:00 27.8 C 51 % 16.73 C
458 30-05-2017 14:05:00 27.9 C 54 % 17.73 C
459 30-05-2017 14:10:00 27.8 C 55 % 17.93 C
460 30-05-2017 14:15:00 27.7 C 54 % 17.55 C
461 30-05-2017 14:20:00 27.6 C 53 % 17.16 C
462 30-05-2017 14:25:00 27.4 C 57 % 18.13 C
463 30-05-2017 14:30:00 27.3 C 55 % 17.47 C
464 30-05-2017 14:35:00 27.3 C 55 % 17.47 C
465 30-05-2017 14:40:00 27.3 C 55 % 17.47 C
466 30-05-2017 14:45:00 27.2 C 55 % 17.37 C
467 30-05-2017 14:50:00 27.2 C 55 % 17.37 C
468 30-05-2017 14:55:00 27.1 C 56 % 17.57 C
469 30-05-2017 15:00:00 27.1 C 57 % 17.85 C
470 30-05-2017 15:05:00 27 C 59 % 18.3 C
471 30-05-2017 15:10:00 26.8 C 60 % 18.38 C
472 30-05-2017 15:15:00 26.6 C 60 % 18.2 C
473 30-05-2017 15:20:00 26.3 C 60 % 17.91 C
474 30-05-2017 15:25:00 26.1 C 61 % 17.99 C
475 30-05-2017 15:30:00 25.9 C 68 % 19.54 C
Sensor: Nr:Datum:Temp:Feuchte:Taupunkt:
Aussen-T/F 476 30-05-2017 15:35:00 25.7 C 71 % 20.04 C
477 30-05-2017 15:40:00 25.2 C 73 % 20.01 C
478 30-05-2017 15:45:00 24.5 C 69 % 18.44 C
479 30-05-2017 15:50:00 24.1 C 78 % 20.02 C
480 30-05-2017 15:55:00 23.8 C 80 % 20.14 C
481 30-05-2017 16:00:00 23.7 C 82 % 20.44 C
482 30-05-2017 16:05:00 23.6 C 77 % 19.33 C
483 30-05-2017 16:10:00 23.6 C 78 % 19.54 C
484 30-05-2017 16:15:00 23.7 C 77 % 19.43 C
485 30-05-2017 16:20:00 23.9 C 75 % 19.2 C
486 30-05-2017 16:25:00 24.3 C 69 % 18.25 C
487 30-05-2017 16:30:00 24.8 C 67 % 18.25 C
488 30-05-2017 16:35:00 25.1 C 65 % 18.06 C
489 30-05-2017 16:40:00 25.1 C 64 % 17.81 C
490 30-05-2017 16:45:00 24.9 C 64 % 17.62 C
491 30-05-2017 16:50:00 25 C 64 % 17.72 C
492 30-05-2017 16:55:00 25 C 63 % 17.47 C
493 30-05-2017 17:00:00 25 C 62 % 17.21 C
494 30-05-2017 17:05:00 24.9 C 62 % 17.12 C
495 30-05-2017 17:10:00 24.8 C 63 % 17.28 C
496 30-05-2017 17:15:00 24.7 C 63 % 17.18 C
497 30-05-2017 17:20:00 24.6 C 63 % 17.09 C
498 30-05-2017 17:25:00 24.6 C 63 % 17.09 C
499 30-05-2017 17:30:00 24.7 C 62 % 16.93 C
500 30-05-2017 17:35:00 24.5 C 64 % 17.24 C
Sensor: Nr:Datum:Temp:Feuchte:Taupunkt:
Aussen-T/F 501 30-05-2017 17:40:00 24.3 C 64 % 17.05 C
502 30-05-2017 17:45:00 24.1 C 64 % 16.86 C
503 30-05-2017 17:50:00 23.7 C 64 % 16.49 C
504 30-05-2017 17:55:00 23.3 C 65 % 16.35 C
505 30-05-2017 18:00:00 23.2 C 66 % 16.5 C
506 30-05-2017 18:05:00 23.2 C 69 % 17.2 C
507 30-05-2017 18:10:00 23.2 C 69 % 17.2 C
508 30-05-2017 18:15:00 23.2 C 71 % 17.65 C
509 30-05-2017 18:20:00 23.2 C 70 % 17.42 C
510 30-05-2017 18:25:00 23.6 C 70 % 17.81 C
511 30-05-2017 18:30:00 24.3 C 68 % 18.01 C
512 30-05-2017 18:35:00 24.9 C 64 % 17.62 C
513 30-05-2017 18:40:00 25.2 C 66 % 18.39 C
514 30-05-2017 18:45:00 25.3 C 66 % 18.49 C
515 30-05-2017 18:50:00 25.6 C 68 % 19.25 C
516 30-05-2017 18:55:00 25.7 C 67 % 19.11 C
517 30-05-2017 19:00:00 25.9 C 63 % 18.31 C
518 30-05-2017 19:05:00 25.9 C 64 % 18.57 C
519 30-05-2017 19:10:00 25.8 C 67 % 19.2 C
520 30-05-2017 19:15:00 25.5 C 68 % 19.16 C
521 30-05-2017 19:20:00 25.4 C 64 % 18.09 C
522 30-05-2017 19:25:00 25.4 C 64 % 18.09 C
523 30-05-2017 19:30:00 25.4 C 64 % 18.09 C
524 30-05-2017 19:35:00 25.3 C 65 % 18.25 C
525 30-05-2017 19:40:00 25.1 C 64 % 17.81 C
Sensor: Nr:Datum:Temp:Feuchte:Taupunkt:
Aussen-T/F 526 30-05-2017 19:45:00 24.9 C 67 % 18.35 C
527 30-05-2017 19:50:00 24.5 C 69 % 18.44 C
528 30-05-2017 19:55:00 24.3 C 70 % 18.48 C
529 30-05-2017 20:00:00 24 C 68 % 17.73 C
530 30-05-2017 20:05:00 23.8 C 68 % 17.54 C
531 30-05-2017 20:10:00 23.7 C 69 % 17.67 C
532 30-05-2017 20:15:00 23.7 C 71 % 18.13 C
533 30-05-2017 20:20:00 23.6 C 72 % 18.26 C
534 30-05-2017 20:25:00 23.4 C 74 % 18.5 C
535 30-05-2017 20:30:00 23.2 C 70 % 17.42 C
536 30-05-2017 20:35:00 23.1 C 69 % 17.1 C
537 30-05-2017 20:40:00 23.1 C 69 % 17.1 C
538 30-05-2017 20:45:00 23 C 68 % 16.78 C
539 30-05-2017 20:50:00 22.9 C 67 % 16.45 C
540 30-05-2017 20:55:00 22.9 C 66 % 16.21 C
541 30-05-2017 21:00:00 22.8 C 66 % 16.12 C
542 30-05-2017 21:05:00 22.8 C 67 % 16.35 C
543 30-05-2017 21:10:00 22.7 C 67 % 16.26 C
544 30-05-2017 21:15:00 22.6 C 66 % 15.93 C
545 30-05-2017 21:20:00 22.4 C 66 % 15.74 C
546 30-05-2017 21:25:00 22.3 C 66 % 15.64 C
547 30-05-2017 21:30:00 22.3 C 66 % 15.64 C
548 30-05-2017 21:35:00 22.2 C 66 % 15.55 C
549 30-05-2017 21:40:00 22.1 C 67 % 15.69 C
550 30-05-2017 21:45:00 21.9 C 66 % 15.26 C
Sensor: Nr:Datum:Temp:Feuchte:Taupunkt:
Aussen-T/F 551 30-05-2017 21:50:00 21.8 C 66 % 15.17 C
552 30-05-2017 21:55:00 21.6 C 66 % 14.98 C
553 30-05-2017 22:00:00 21.5 C 66 % 14.88 C
554 30-05-2017 22:05:00 21.3 C 67 % 14.93 C
555 30-05-2017 22:10:00 21.2 C 67 % 14.83 C
556 30-05-2017 22:15:00 21 C 67 % 14.64 C
557 30-05-2017 22:20:00 20.8 C 67 % 14.45 C
558 30-05-2017 22:25:00 20.7 C 68 % 14.58 C
559 30-05-2017 22:30:00 20.6 C 68 % 14.49 C
560 30-05-2017 22:35:00 20.4 C 68 % 14.3 C
561 30-05-2017 22:40:00 20.3 C 68 % 14.2 C
562 30-05-2017 22:45:00 20.2 C 69 % 14.33 C
563 30-05-2017 22:50:00 20.1 C 69 % 14.24 C
564 30-05-2017 22:55:00 20 C 69 % 14.14 C
565 30-05-2017 23:00:00 19.9 C 69 % 14.05 C
566 30-05-2017 23:05:00 19.8 C 69 % 13.95 C
567 30-05-2017 23:10:00 19.7 C 70 % 14.08 C
568 30-05-2017 23:15:00 19.6 C 70 % 13.98 C
569 30-05-2017 23:20:00 19.5 C 70 % 13.89 C
570 30-05-2017 23:25:00 19.4 C 69 % 13.57 C
571 30-05-2017 23:30:00 19.3 C 70 % 13.69 C
572 30-05-2017 23:35:00 19.2 C 69 % 13.38 C
573 30-05-2017 23:40:00 19.1 C 70 % 13.5 C
574 30-05-2017 23:45:00 18.9 C 70 % 13.31 C
575 30-05-2017 23:50:00 18.8 C 72 % 13.65 C
Sensor: Nr:Datum:Temp:Feuchte:Taupunkt:
Aussen-T/F 576 30-05-2017 23:55:00 18.6 C 71 % 13.24 C
577 31-05-2017 00:00:00 18.4 C 71 % 13.05 C
578 31-05-2017 00:05:00 18.2 C 71 % 12.86 C
579 31-05-2017 00:10:00 18.2 C 71 % 12.86 C
580 31-05-2017 00:15:00 18.2 C 71 % 12.86 C
581 31-05-2017 00:20:00 18.2 C 71 % 12.86 C
582 31-05-2017 00:25:00 18.1 C 71 % 12.76 C
583 31-05-2017 00:30:00 18.1 C 71 % 12.76 C
584 31-05-2017 00:35:00 18 C 70 % 12.45 C
585 31-05-2017 00:40:00 18 C 70 % 12.45 C
586 31-05-2017 00:45:00 18 C 70 % 12.45 C
587 31-05-2017 00:50:00 18 C 70 % 12.45 C
588 31-05-2017 00:55:00 17.9 C 71 % 12.57 C
589 31-05-2017 01:00:00 17.8 C 73 % 12.9 C
590 31-05-2017 01:05:00 17.7 C 71 % 12.38 C
591 31-05-2017 01:10:00 17.7 C 73 % 12.8 C
592 31-05-2017 01:15:00 17.6 C 71 % 12.28 C
593 31-05-2017 01:20:00 17.5 C 71 % 12.19 C
594 31-05-2017 01:25:00 17.5 C 71 % 12.19 C
595 31-05-2017 01:30:00 17.5 C 71 % 12.19 C
596 31-05-2017 01:35:00 17.6 C 73 % 12.71 C
597 31-05-2017 01:40:00 17.5 C 73 % 12.61 C
598 31-05-2017 01:45:00 17.4 C 72 % 12.3 C
599 31-05-2017 01:50:00 17.4 C 74 % 12.72 C
600 31-05-2017 01:55:00 17.3 C 73 % 12.42 C
Sensor: Nr:Datum:Temp:Feuchte:Taupunkt:
Aussen-T/F 601 31-05-2017 02:00:00 17.2 C 73 % 12.32 C
602 31-05-2017 02:05:00 17.1 C 74 % 12.43 C
603 31-05-2017 02:10:00 17 C 75 % 12.54 C
604 31-05-2017 02:15:00 16.8 C 76 % 12.55 C
605 31-05-2017 02:20:00 16.6 C 76 % 12.36 C
606 31-05-2017 02:25:00 16.4 C 76 % 12.16 C
607 31-05-2017 02:30:00 16.2 C 77 % 12.17 C
608 31-05-2017 02:35:00 15.9 C 77 % 11.88 C
609 31-05-2017 02:40:00 15.8 C 77 % 11.78 C
610 31-05-2017 02:45:00 15.6 C 78 % 11.78 C
611 31-05-2017 02:50:00 15.4 C 78 % 11.59 C
612 31-05-2017 02:55:00 15.3 C 78 % 11.49 C
613 31-05-2017 03:00:00 15.1 C 78 % 11.3 C
614 31-05-2017 03:05:00 15.1 C 78 % 11.3 C
615 31-05-2017 03:10:00 14.9 C 78 % 11.1 C
616 31-05-2017 03:15:00 14.8 C 78 % 11 C
617 31-05-2017 03:20:00 14.7 C 79 % 11.1 C
618 31-05-2017 03:25:00 14.6 C 79 % 11 C
619 31-05-2017 03:30:00 14.4 C 80 % 11 C
620 31-05-2017 03:35:00 14.3 C 80 % 10.9 C
621 31-05-2017 03:40:00 14.2 C 81 % 10.99 C
622 31-05-2017 03:45:00 14 C 82 % 10.98 C
623 31-05-2017 03:50:00 13.9 C 82 % 10.88 C
624 31-05-2017 03:55:00 13.8 C 83 % 10.97 C
625 31-05-2017 04:00:00 13.7 C 83 % 10.87 C
Sensor: Nr:Datum:Temp:Feuchte:Taupunkt:
Aussen-T/F 626 31-05-2017 04:05:00 13.6 C 84 % 10.95 C
627 31-05-2017 04:10:00 13.5 C 84 % 10.85 C
628 31-05-2017 04:15:00 13.3 C 84 % 10.66 C
629 31-05-2017 04:20:00 13.2 C 85 % 10.74 C
630 31-05-2017 04:25:00 13.1 C 85 % 10.64 C
631 31-05-2017 04:30:00 13.1 C 85 % 10.64 C
632 31-05-2017 04:35:00 12.9 C 86 % 10.62 C
633 31-05-2017 04:40:00 12.8 C 86 % 10.52 C
634 31-05-2017 04:45:00 12.8 C 86 % 10.52 C
635 31-05-2017 04:50:00 12.7 C 87 % 10.59 C
636 31-05-2017 04:55:00 12.7 C 87 % 10.59 C
637 31-05-2017 05:00:00 12.6 C 87 % 10.5 C
638 31-05-2017 05:05:00 12.6 C 87 % 10.5 C
639 31-05-2017 05:10:00 12.6 C 87 % 10.5 C
640 31-05-2017 05:15:00 12.5 C 87 % 10.4 C
641 31-05-2017 05:20:00 12.4 C 87 % 10.3 C
642 31-05-2017 05:25:00 12.4 C 88 % 10.47 C
643 31-05-2017 05:30:00 12.3 C 88 % 10.37 C
644 31-05-2017 05:35:00 12.3 C 88 % 10.37 C
645 31-05-2017 05:40:00 12.3 C 89 % 10.54 C
646 31-05-2017 05:45:00 12.2 C 89 % 10.44 C
647 31-05-2017 05:50:00 12.2 C 89 % 10.44 C
648 31-05-2017 05:55:00 12.1 C 89 % 10.34 C
649 31-05-2017 06:00:00 12.1 C 90 % 10.51 C
650 31-05-2017 06:05:00 12.2 C 90 % 10.61 C
Sensor: Nr:Datum:Temp:Feuchte:Taupunkt:
Aussen-T/F 651 31-05-2017 06:10:00 12.2 C 90 % 10.61 C
652 31-05-2017 06:15:00 12.1 C 90 % 10.51 C
653 31-05-2017 06:20:00 12.2 C 91 % 10.78 C
654 31-05-2017 06:25:00 12.2 C 91 % 10.78 C
655 31-05-2017 06:30:00 12.2 C 91 % 10.78 C
656 31-05-2017 06:35:00 12.3 C 91 % 10.87 C
657 31-05-2017 06:40:00 12.3 C 92 % 11.04 C
658 31-05-2017 06:45:00 12.4 C 92 % 11.14 C
659 31-05-2017 06:50:00 12.6 C 92 % 11.34 C
660 31-05-2017 06:55:00 12.7 C 92 % 11.43 C
661 31-05-2017 07:00:00 12.8 C 92 % 11.53 C
662 31-05-2017 07:05:00 12.8 C 91 % 11.37 C
663 31-05-2017 07:10:00 12.9 C 91 % 11.47 C
664 31-05-2017 07:15:00 12.9 C 91 % 11.47 C
665 31-05-2017 07:20:00 12.9 C 90 % 11.3 C
666 31-05-2017 07:25:00 12.9 C 90 % 11.3 C
667 31-05-2017 07:30:00 12.9 C 91 % 11.47 C
668 31-05-2017 07:35:00 13 C 91 % 11.57 C
669 31-05-2017 07:40:00 13.1 C 91 % 11.67 C
670 31-05-2017 07:45:00 13.2 C 91 % 11.76 C
671 31-05-2017 07:50:00 13.3 C 91 % 11.86 C
672 31-05-2017 07:55:00 13.3 C 91 % 11.86 C
673 31-05-2017 08:00:00 13.4 C 91 % 11.96 C
674 31-05-2017 08:05:00 13.5 C 91 % 12.06 C
675 31-05-2017 08:10:00 13.6 C 91 % 12.16 C
Sensor: Nr:Datum:Temp:Feuchte:Taupunkt:
Aussen-T/F 676 31-05-2017 08:15:00 13.7 C 91 % 12.26 C
677 31-05-2017 08:20:00 13.9 C 90 % 12.29 C
678 31-05-2017 08:25:00 14.1 C 89 % 12.32 C
679 31-05-2017 08:30:00 14.3 C 89 % 12.51 C
680 31-05-2017 08:35:00 14.4 C 89 % 12.61 C
681 31-05-2017 08:40:00 14.6 C 87 % 12.46 C
682 31-05-2017 08:45:00 14.8 C 88 % 12.83 C
683 31-05-2017 08:50:00 14.8 C 88 % 12.83 C
684 31-05-2017 08:55:00 14.9 C 86 % 12.58 C
685 31-05-2017 09:00:00 15.2 C 85 % 12.7 C
686 31-05-2017 09:05:00 15.3 C 86 % 12.97 C
687 31-05-2017 09:10:00 15.4 C 86 % 13.07 C
688 31-05-2017 09:15:00 15.5 C 85 % 12.99 C
689 31-05-2017 09:20:00 15.7 C 83 % 12.82 C
690 31-05-2017 09:25:00 15.8 C 82 % 12.74 C
691 31-05-2017 09:30:00 16.1 C 81 % 12.84 C
692 31-05-2017 09:35:00 16.4 C 80 % 12.94 C
693 31-05-2017 09:40:00 16.7 C 79 % 13.04 C
694 31-05-2017 09:45:00 16.8 C 78 % 12.94 C
695 31-05-2017 09:50:00 16.9 C 79 % 13.24 C
696 31-05-2017 09:55:00 17.1 C 76 % 12.84 C
697 31-05-2017 10:00:00 17.2 C 76 % 12.94 C
698 31-05-2017 10:05:00 17.5 C 76 % 13.23 C
699 31-05-2017 10:10:00 17.7 C 75 % 13.22 C
700 31-05-2017 10:15:00 17.9 C 74 % 13.2 C
Sensor: Nr:Datum:Temp:Feuchte:Taupunkt:
Aussen-T/F 701 31-05-2017 10:20:00 18.2 C 73 % 13.28 C
702 31-05-2017 10:25:00 18.6 C 72 % 13.46 C
703 31-05-2017 10:30:00 18.9 C 73 % 13.96 C
704 31-05-2017 10:35:00 19.1 C 70 % 13.5 C
705 31-05-2017 10:40:00 19.2 C 68 % 13.15 C
706 31-05-2017 10:45:00 19.1 C 67 % 12.83 C
707 31-05-2017 10:50:00 19.1 C 68 % 13.06 C
708 31-05-2017 10:55:00 19.2 C 67 % 12.93 C
709 31-05-2017 11:00:00 19.2 C 68 % 13.15 C
710 31-05-2017 11:05:00 19.3 C 68 % 13.25 C
711 31-05-2017 11:10:00 19.4 C 66 % 12.89 C
712 31-05-2017 11:15:00 19.6 C 66 % 13.08 C
713 31-05-2017 11:20:00 19.8 C 65 % 13.03 C
714 31-05-2017 11:25:00 19.8 C 66 % 13.27 C
715 31-05-2017 11:30:00 19.7 C 65 % 12.94 C
716 31-05-2017 11:35:00 19.7 C 64 % 12.7 C
717 31-05-2017 11:40:00 19.8 C 63 % 12.56 C
718 31-05-2017 11:45:00 20.1 C 65 % 13.32 C
719 31-05-2017 11:50:00 20.2 C 63 % 12.94 C
720 31-05-2017 11:55:00 20.3 C 64 % 13.27 C
721 31-05-2017 12:00:00 20.3 C 63 % 13.03 C
722 31-05-2017 12:05:00 20.3 C 61 % 12.54 C
723 31-05-2017 12:10:00 20.5 C 63 % 13.22 C
724 31-05-2017 12:15:00 20.7 C 63 % 13.41 C
725 31-05-2017 12:20:00 20.6 C 62 % 13.07 C
Sensor: Nr:Datum:Temp:Feuchte:Taupunkt:
Aussen-T/F 726 31-05-2017 12:25:00 20.7 C 62 % 13.16 C
727 31-05-2017 12:30:00 20.7 C 61 % 12.91 C
728 31-05-2017 12:35:00 20.7 C 61 % 12.91 C
729 31-05-2017 12:40:00 20.6 C 61 % 12.82 C
730 31-05-2017 12:45:00 20.6 C 61 % 12.82 C
731 31-05-2017 12:50:00 20.7 C 62 % 13.16 C
732 31-05-2017 12:55:00 20.9 C 62 % 13.35 C
733 31-05-2017 13:00:00 21.2 C 60 % 13.13 C
734 31-05-2017 13:05:00 21.3 C 60 % 13.22 C
735 31-05-2017 13:10:00 21.3 C 60 % 13.22 C
736 31-05-2017 13:15:00 21.4 C 59 % 13.06 C
737 31-05-2017 13:20:00 21.5 C 62 % 13.92 C
738 31-05-2017 13:25:00 21.7 C 59 % 13.34 C
739 31-05-2017 13:30:00 21.7 C 56 % 12.54 C
740 31-05-2017 13:35:00 21.6 C 57 % 12.72 C
741 31-05-2017 13:40:00 21.5 C 58 % 12.89 C
742 31-05-2017 13:45:00 21.5 C 57 % 12.63 C
743 31-05-2017 13:50:00 21.5 C 57 % 12.63 C
744 31-05-2017 13:55:00 21.6 C 57 % 12.72 C
745 31-05-2017 14:00:00 21.7 C 56 % 12.54 C
746 31-05-2017 14:05:00 21.8 C 55 % 12.36 C
747 31-05-2017 14:10:00 22.1 C 56 % 12.92 C
748 31-05-2017 14:15:00 22.3 C 54 % 12.55 C
749 31-05-2017 14:20:00 22.6 C 54 % 12.83 C
750 31-05-2017 14:25:00 22.6 C 54 % 12.83 C
Sensor: Nr:Datum:Temp:Feuchte:Taupunkt:
Aussen-T/F 751 31-05-2017 14:30:00 22.6 C 53 % 12.54 C
752 31-05-2017 14:35:00 22.7 C 53 % 12.63 C
753 31-05-2017 14:40:00 22.8 C 55 % 13.29 C
754 31-05-2017 14:45:00 23.1 C 52 % 12.71 C
755 31-05-2017 14:50:00 22.8 C 53 % 12.73 C
756 31-05-2017 14:55:00 22.7 C 52 % 12.34 C
757 31-05-2017 15:00:00 22.5 C 53 % 12.45 C
758 31-05-2017 15:05:00 22.7 C 55 % 13.2 C
759 31-05-2017 15:10:00 23 C 53 % 12.91 C
760 31-05-2017 15:15:00 23.3 C 50 % 12.3 C
761 31-05-2017 15:20:00 23.2 C 51 % 12.51 C
762 31-05-2017 15:25:00 23.3 C 53 % 13.19 C
763 31-05-2017 15:30:00 23.8 C 53 % 13.65 C
764 31-05-2017 15:35:00 24.4 C 50 % 13.31 C
765 31-05-2017 15:40:00 24.4 C 48 % 12.68 C
766 31-05-2017 15:45:00 24.2 C 49 % 12.81 C
767 31-05-2017 15:50:00 24.3 C 48 % 12.59 C
768 31-05-2017 15:55:00 24.3 C 48 % 12.59 C
769 31-05-2017 16:00:00 24.2 C 47 % 12.18 C
770 31-05-2017 16:05:00 24 C 47 % 12 C
771 31-05-2017 16:10:00 24.1 C 48 % 12.41 C
772 31-05-2017 16:15:00 24.2 C 49 % 12.81 C
773 31-05-2017 16:20:00 24.8 C 46 % 12.4 C
774 31-05-2017 16:25:00 25.3 C 45 % 12.52 C
775 31-05-2017 16:30:00 25.4 C 43 % 11.92 C
Sensor: Nr:Datum:Temp:Feuchte:Taupunkt:
Aussen-T/F 776 31-05-2017 16:35:00 25.5 C 46 % 13.03 C
777 31-05-2017 16:40:00 25.6 C 43 % 12.1 C
778 31-05-2017 16:45:00 25.4 C 45 % 12.61 C
779 31-05-2017 16:50:00 24.9 C 43 % 11.47 C
780 31-05-2017 16:55:00 24.8 C 44 % 11.72 C
781 31-05-2017 17:00:00 24.4 C 43 % 11.02 C
782 31-05-2017 17:05:00 24.2 C 44 % 11.18 C
783 31-05-2017 17:10:00 24.1 C 44 % 11.09 C
784 31-05-2017 17:15:00 24.1 C 45 % 11.43 C
785 31-05-2017 17:20:00 24.1 C 45 % 11.43 C
786 31-05-2017 17:25:00 24.1 C 45 % 11.43 C
787 31-05-2017 17:30:00 24.2 C 45 % 11.52 C
788 31-05-2017 17:35:00 24.6 C 45 % 11.88 C
789 31-05-2017 17:40:00 24.8 C 44 % 11.72 C
790 31-05-2017 17:45:00 24.8 C 44 % 11.72 C
791 31-05-2017 17:50:00 24.8 C 45 % 12.06 C
792 31-05-2017 17:55:00 25 C 44 % 11.9 C
793 31-05-2017 18:00:00 25.3 C 45 % 12.52 C
794 31-05-2017 18:05:00 25.8 C 43 % 12.28 C
795 31-05-2017 18:10:00 25.9 C 41 % 11.64 C
796 31-05-2017 18:15:00 25.4 C 42 % 11.56 C
797 31-05-2017 18:20:00 25 C 44 % 11.9 C
798 31-05-2017 18:25:00 24.6 C 44 % 11.54 C
799 31-05-2017 18:30:00 24.3 C 45 % 11.61 C
800 31-05-2017 18:35:00 24.2 C 46 % 11.85 C
Sensor: Nr:Datum:Temp:Feuchte:Taupunkt:
Aussen-T/F 801 31-05-2017 18:40:00 24.1 C 46 % 11.76 C
802 31-05-2017 18:45:00 24 C 45 % 11.34 C
803 31-05-2017 18:50:00 24 C 47 % 12 C
804 31-05-2017 18:55:00 23.9 C 46 % 11.58 C
805 31-05-2017 19:00:00 23.9 C 46 % 11.58 C
806 31-05-2017 19:05:00 23.9 C 46 % 11.58 C
807 31-05-2017 19:10:00 24 C 46 % 11.67 C
808 31-05-2017 19:15:00 23.9 C 47 % 11.91 C
809 31-05-2017 19:20:00 23.8 C 48 % 12.14 C
810 31-05-2017 19:25:00 23.6 C 48 % 11.95 C
811 31-05-2017 19:30:00 23.6 C 47 % 11.63 C
812 31-05-2017 19:35:00 23.7 C 48 % 12.04 C
813 31-05-2017 19:40:00 23.8 C 46 % 11.49 C
814 31-05-2017 19:45:00 23.9 C 47 % 11.91 C
815 31-05-2017 19:50:00 23.8 C 46 % 11.49 C
816 31-05-2017 19:55:00 23.7 C 48 % 12.04 C
817 31-05-2017 20:00:00 23.4 C 49 % 12.08 C
818 31-05-2017 20:05:00 23.3 C 50 % 12.3 C
819 31-05-2017 20:10:00 23.2 C 51 % 12.51 C
820 31-05-2017 20:15:00 23.1 C 52 % 12.71 C
821 31-05-2017 20:20:00 23.1 C 53 % 13 C
822 31-05-2017 20:25:00 22.9 C 52 % 12.53 C
823 31-05-2017 20:30:00 22.8 C 58 % 14.11 C
824 31-05-2017 20:35:00 22.7 C 59 % 14.28 C
825 31-05-2017 20:40:00 22.4 C 61 % 14.51 C
Sensor: Nr:Datum:Temp:Feuchte:Taupunkt:
Aussen-T/F 826 31-05-2017 20:45:00 22.1 C 62 % 14.48 C
827 31-05-2017 20:50:00 21.8 C 63 % 14.45 C
828 31-05-2017 20:55:00 21.4 C 64 % 14.31 C
829 31-05-2017 21:00:00 21 C 65 % 14.17 C
830 31-05-2017 21:05:00 20.6 C 66 % 14.03 C
831 31-05-2017 21:10:00 20.2 C 67 % 13.88 C
832 31-05-2017 21:15:00 19.9 C 67 % 13.59 C
833 31-05-2017 21:20:00 19.6 C 68 % 13.54 C
834 31-05-2017 21:25:00 19.3 C 69 % 13.47 C
835 31-05-2017 21:30:00 19.1 C 69 % 13.28 C
836 31-05-2017 21:35:00 18.8 C 69 % 13 C
837 31-05-2017 21:40:00 18.7 C 70 % 13.12 C
838 31-05-2017 21:45:00 18.5 C 70 % 12.93 C
839 31-05-2017 21:50:00 18.3 C 70 % 12.74 C
840 31-05-2017 21:55:00 18.2 C 69 % 12.42 C
841 31-05-2017 22:00:00 18.1 C 70 % 12.55 C
842 31-05-2017 22:05:00 18 C 70 % 12.45 C
843 31-05-2017 22:10:00 17.9 C 70 % 12.35 C
844 31-05-2017 22:15:00 17.8 C 70 % 12.26 C
845 31-05-2017 22:20:00 17.8 C 71 % 12.47 C
846 31-05-2017 22:25:00 17.7 C 71 % 12.38 C
847 31-05-2017 22:30:00 17.7 C 72 % 12.59 C
848 31-05-2017 22:35:00 17.6 C 73 % 12.71 C
849 31-05-2017 22:40:00 17.4 C 74 % 12.72 C
850 31-05-2017 22:45:00 17.2 C 75 % 12.73 C
Sensor: Nr:Datum:Temp:Feuchte:Taupunkt:
Aussen-T/F 851 31-05-2017 22:50:00 17.1 C 75 % 12.64 C
852 31-05-2017 22:55:00 16.8 C 76 % 12.55 C
853 31-05-2017 23:00:00 16.4 C 77 % 12.36 C
854 31-05-2017 23:05:00 16.2 C 77 % 12.17 C
855 31-05-2017 23:10:00 16.1 C 78 % 12.27 C
856 31-05-2017 23:15:00 15.9 C 79 % 12.27 C
857 31-05-2017 23:20:00 15.8 C 79 % 12.17 C
858 31-05-2017 23:25:00 15.6 C 80 % 12.16 C
859 31-05-2017 23:30:00 15.3 C 80 % 11.87 C
860 31-05-2017 23:35:00 15.2 C 81 % 11.96 C
861 31-05-2017 23:40:00 15.2 C 81 % 11.96 C
862 31-05-2017 23:45:00 15.1 C 82 % 12.05 C
863 31-05-2017 23:50:00 14.9 C 82 % 11.86 C
864 31-05-2017 23:55:00 14.8 C 83 % 11.94 C
865 01-06-2017 00:00:00 14.7 C 83 % 11.85 C
866 01-06-2017 00:05:00 14.7 C 83 % 11.85 C
867 01-06-2017 00:10:00 14.7 C 84 % 12.03 C
868 01-06-2017 00:15:00 14.7 C 84 % 12.03 C
869 01-06-2017 00:20:00 14.7 C 84 % 12.03 C
870 01-06-2017 00:25:00 14.7 C 84 % 12.03 C
871 01-06-2017 00:30:00 14.6 C 84 % 11.93 C
872 01-06-2017 00:35:00 14.5 C 84 % 11.83 C
873 01-06-2017 00:40:00 14.4 C 85 % 11.91 C
874 01-06-2017 00:45:00 14.3 C 85 % 11.81 C
875 01-06-2017 00:50:00 14.2 C 85 % 11.72 C
Sensor: Nr:Datum:Temp:Feuchte:Taupunkt:
Aussen-T/F 876 01-06-2017 00:55:00 14.1 C 86 % 11.8 C
877 01-06-2017 01:00:00 13.9 C 86 % 11.6 C
878 01-06-2017 01:05:00 13.9 C 86 % 11.6 C
879 01-06-2017 01:10:00 13.8 C 87 % 11.68 C
880 01-06-2017 01:15:00 13.8 C 87 % 11.68 C
881 01-06-2017 01:20:00 13.7 C 87 % 11.58 C
882 01-06-2017 01:25:00 13.7 C 87 % 11.58 C
883 01-06-2017 01:30:00 13.6 C 88 % 11.65 C
884 01-06-2017 01:35:00 13.5 C 88 % 11.55 C
885 01-06-2017 01:40:00 13.4 C 88 % 11.45 C
886 01-06-2017 01:45:00 13.4 C 89 % 11.63 C
887 01-06-2017 01:50:00 13.3 C 89 % 11.53 C
888 01-06-2017 01:55:00 13.3 C 89 % 11.53 C
889 01-06-2017 02:00:00 13.3 C 89 % 11.53 C
890 01-06-2017 02:05:00 13.3 C 89 % 11.53 C
891 01-06-2017 02:10:00 13.2 C 89 % 11.43 C
892 01-06-2017 02:15:00 13.2 C 90 % 11.6 C
893 01-06-2017 02:20:00 13.2 C 90 % 11.6 C
894 01-06-2017 02:25:00 13.2 C 90 % 11.6 C
895 01-06-2017 02:30:00 13.1 C 90 % 11.5 C
896 01-06-2017 02:35:00 13.1 C 90 % 11.5 C
897 01-06-2017 02:40:00 13 C 90 % 11.4 C
898 01-06-2017 02:45:00 12.9 C 90 % 11.3 C
899 01-06-2017 02:50:00 12.9 C 91 % 11.47 C
900 01-06-2017 02:55:00 12.9 C 91 % 11.47 C
Sensor: Nr:Datum:Temp:Feuchte:Taupunkt:
Aussen-T/F 901 01-06-2017 03:00:00 12.9 C 91 % 11.47 C
902 01-06-2017 03:05:00 12.8 C 91 % 11.37 C
903 01-06-2017 03:10:00 12.8 C 91 % 11.37 C
904 01-06-2017 03:15:00 12.8 C 91 % 11.37 C
905 01-06-2017 03:20:00 12.7 C 91 % 11.27 C
906 01-06-2017 03:25:00 12.7 C 91 % 11.27 C
907 01-06-2017 03:30:00 12.6 C 91 % 11.17 C
908 01-06-2017 03:35:00 12.6 C 91 % 11.17 C
909 01-06-2017 03:40:00 12.6 C 91 % 11.17 C
910 01-06-2017 03:45:00 12.5 C 91 % 11.07 C
911 01-06-2017 03:50:00 12.4 C 91 % 10.97 C
912 01-06-2017 03:55:00 12.4 C 92 % 11.14 C
913 01-06-2017 04:00:00 12.3 C 92 % 11.04 C
914 01-06-2017 04:05:00 12.3 C 92 % 11.04 C
915 01-06-2017 04:10:00 12.3 C 92 % 11.04 C
916 01-06-2017 04:15:00 12.2 C 92 % 10.94 C
917 01-06-2017 04:20:00 12.2 C 92 % 10.94 C
918 01-06-2017 04:25:00 12.2 C 92 % 10.94 C
919 01-06-2017 04:30:00 12.2 C 92 % 10.94 C
920 01-06-2017 04:35:00 12.2 C 93 % 11.1 C
921 01-06-2017 04:40:00 12.1 C 92 % 10.84 C
922 01-06-2017 04:45:00 12.1 C 92 % 10.84 C
923 01-06-2017 04:50:00 12 C 92 % 10.74 C
924 01-06-2017 04:55:00 11.9 C 93 % 10.81 C
925 01-06-2017 05:00:00 11.9 C 93 % 10.81 C
Sensor: Nr:Datum:Temp:Feuchte:Taupunkt:
Aussen-T/F 926 01-06-2017 05:05:00 11.9 C 93 % 10.81 C
927 01-06-2017 05:10:00 11.8 C 93 % 10.71 C
928 01-06-2017 05:15:00 11.8 C 93 % 10.71 C
929 01-06-2017 05:20:00 11.8 C 93 % 10.71 C
930 01-06-2017 05:25:00 11.7 C 93 % 10.61 C
931 01-06-2017 05:30:00 11.7 C 93 % 10.61 C
932 01-06-2017 05:35:00 11.8 C 93 % 10.71 C
933 01-06-2017 05:40:00 11.8 C 93 % 10.71 C
934 01-06-2017 05:45:00 11.7 C 93 % 10.61 C
935 01-06-2017 05:50:00 11.8 C 94 % 10.87 C
936 01-06-2017 05:55:00 11.8 C 94 % 10.87 C
937 01-06-2017 06:00:00 11.8 C 93 % 10.71 C
938 01-06-2017 06:05:00 11.7 C 94 % 10.77 C
939 01-06-2017 06:10:00 11.7 C 94 % 10.77 C
940 01-06-2017 06:15:00 11.7 C 94 % 10.77 C
941 01-06-2017 06:20:00 11.7 C 94 % 10.77 C
942 01-06-2017 06:25:00 11.7 C 94 % 10.77 C
943 01-06-2017 06:30:00 11.8 C 94 % 10.87 C
944 01-06-2017 06:35:00 11.8 C 94 % 10.87 C
945 01-06-2017 06:40:00 11.8 C 94 % 10.87 C
946 01-06-2017 06:45:00 11.9 C 94 % 10.97 C
947 01-06-2017 06:50:00 12 C 94 % 11.07 C
948 01-06-2017 06:55:00 12.2 C 95 % 11.42 C
949 01-06-2017 07:00:00 12.3 C 94 % 11.36 C
950 01-06-2017 07:05:00 12.3 C 94 % 11.36 C
Sensor: Nr:Datum:Temp:Feuchte:Taupunkt:
Aussen-T/F 951 01-06-2017 07:10:00 12.4 C 95 % 11.62 C
952 01-06-2017 07:15:00 12.5 C 94 % 11.56 C
953 01-06-2017 07:20:00 12.6 C 94 % 11.66 C
954 01-06-2017 07:25:00 12.7 C 94 % 11.76 C
955 01-06-2017 07:30:00 12.7 C 94 % 11.76 C
956 01-06-2017 07:35:00 12.8 C 94 % 11.86 C
957 01-06-2017 07:40:00 12.8 C 94 % 11.86 C
958 01-06-2017 07:45:00 12.9 C 94 % 11.96 C
959 01-06-2017 07:50:00 12.9 C 94 % 11.96 C
960 01-06-2017 07:55:00 13 C 94 % 12.06 C
961 01-06-2017 08:00:00 13.1 C 94 % 12.16 C
962 01-06-2017 08:05:00 13.3 C 94 % 12.36 C
963 01-06-2017 08:10:00 13.4 C 94 % 12.45 C
964 01-06-2017 08:15:00 13.5 C 93 % 12.39 C
965 01-06-2017 08:20:00 13.6 C 93 % 12.49 C
966 01-06-2017 08:25:00 13.8 C 93 % 12.69 C
967 01-06-2017 08:30:00 13.9 C 93 % 12.79 C
968 01-06-2017 08:35:00 14.1 C 93 % 12.99 C
969 01-06-2017 08:40:00 14.2 C 93 % 13.08 C
970 01-06-2017 08:45:00 14.3 C 93 % 13.18 C
971 01-06-2017 08:50:00 14.4 C 93 % 13.28 C
972 01-06-2017 08:55:00 14.6 C 93 % 13.48 C
973 01-06-2017 09:00:00 14.8 C 93 % 13.68 C
974 01-06-2017 09:05:00 14.9 C 92 % 13.61 C
975 01-06-2017 09:10:00 15.1 C 91 % 13.64 C
Sensor: Nr:Datum:Temp:Feuchte:Taupunkt:
Aussen-T/F 976 01-06-2017 09:15:00 15.3 C 91 % 13.84 C
977 01-06-2017 09:20:00 15.4 C 90 % 13.77 C
978 01-06-2017 09:25:00 15.7 C 89 % 13.89 C
979 01-06-2017 09:30:00 15.9 C 89 % 14.09 C
980 01-06-2017 09:35:00 16.2 C 89 % 14.39 C
981 01-06-2017 09:40:00 16.3 C 88 % 14.31 C
982 01-06-2017 09:45:00 16.4 C 87 % 14.23 C
983 01-06-2017 09:50:00 16.6 C 87 % 14.43 C
984 01-06-2017 09:55:00 16.7 C 86 % 14.35 C
985 01-06-2017 10:00:00 16.9 C 87 % 14.72 C
986 01-06-2017 10:05:00 17.1 C 85 % 14.56 C
987 01-06-2017 10:10:00 17.3 C 85 % 14.76 C
988 01-06-2017 10:15:00 17.6 C 84 % 14.87 C
989 01-06-2017 10:20:00 18.1 C 84 % 15.35 C
990 01-06-2017 10:25:00 18.6 C 81 % 15.28 C
991 01-06-2017 10:30:00 19.2 C 79 % 15.47 C
992 01-06-2017 10:35:00 19.7 C 77 % 15.56 C
993 01-06-2017 10:40:00 20.2 C 74 % 15.42 C
994 01-06-2017 10:45:00 20.6 C 73 % 15.59 C
995 01-06-2017 10:50:00 20.7 C 71 % 15.25 C
996 01-06-2017 10:55:00 20.7 C 70 % 15.03 C
997 01-06-2017 11:00:00 20.8 C 69 % 14.91 C
998 01-06-2017 11:05:00 20.8 C 68 % 14.68 C
999 01-06-2017 11:10:00 20.9 C 69 % 15 C
1000 01-06-2017 11:15:00 20.9 C 67 % 14.55 C
Sensor: Nr:Datum:Temp:Feuchte:Taupunkt:
Aussen-T/F 1001 01-06-2017 11:20:00 21 C 71 % 15.54 C
1002 01-06-2017 11:25:00 20.9 C 64 % 13.84 C
1003 01-06-2017 11:30:00 21.1 C 65 % 14.27 C
1004 01-06-2017 11:35:00 21.2 C 65 % 14.36 C
1005 01-06-2017 11:40:00 21.3 C 67 % 14.93 C
1006 01-06-2017 11:45:00 21.5 C 63 % 14.16 C
1007 01-06-2017 11:50:00 21.7 C 61 % 13.85 C
1008 01-06-2017 11:55:00 21.8 C 60 % 13.69 C
1009 01-06-2017 12:00:00 21.8 C 60 % 13.69 C
1010 01-06-2017 12:05:00 21.9 C 62 % 14.29 C
1011 01-06-2017 12:10:00 22.1 C 60 % 13.98 C
1012 01-06-2017 12:15:00 22.2 C 58 % 13.55 C
1013 01-06-2017 12:20:00 22.4 C 58 % 13.73 C
1014 01-06-2017 12:25:00 22.5 C 54 % 12.73 C
1015 01-06-2017 12:30:00 22.6 C 56 % 13.38 C
1016 01-06-2017 12:35:00 22.7 C 56 % 13.47 C
1017 01-06-2017 12:40:00 22.7 C 56 % 13.47 C
1018 01-06-2017 12:45:00 22.7 C 57 % 13.75 C
1019 01-06-2017 12:50:00 22.7 C 56 % 13.47 C
1020 01-06-2017 12:55:00 22.8 C 54 % 13.01 C
1021 01-06-2017 13:00:00 23.1 C 55 % 13.57 C
1022 01-06-2017 13:05:00 23.1 C 53 % 13 C
1023 01-06-2017 13:10:00 22.9 C 54 % 13.1 C
1024 01-06-2017 13:15:00 23 C 50 % 12.02 C
1025 01-06-2017 13:20:00 23.1 C 52 % 12.71 C
Sensor: Nr:Datum:Temp:Feuchte:Taupunkt:
Aussen-T/F 1026 01-06-2017 13:25:00 23.2 C 52 % 12.8 C
1027 01-06-2017 13:30:00 23.3 C 51 % 12.6 C
1028 01-06-2017 13:35:00 23.4 C 50 % 12.39 C
1029 01-06-2017 13:40:00 23.6 C 51 % 12.88 C
1030 01-06-2017 13:45:00 23.7 C 55 % 14.13 C
1031 01-06-2017 13:50:00 23.8 C 61 % 15.83 C
1032 01-06-2017 13:55:00 23.7 C 63 % 16.24 C
1033 01-06-2017 14:00:00 23.6 C 66 % 16.88 C
1034 01-06-2017 14:05:00 23.4 C 56 % 14.13 C
1035 01-06-2017 14:10:00 23.2 C 52 % 12.8 C
1036 01-06-2017 14:15:00 23.2 C 53 % 13.09 C
1037 01-06-2017 14:20:00 23.4 C 50 % 12.39 C
1038 01-06-2017 14:25:00 23.8 C 50 % 12.76 C
1039 01-06-2017 14:30:00 24.2 C 49 % 12.81 C
1040 01-06-2017 14:35:00 24.5 C 48 % 12.77 C
1041 01-06-2017 14:40:00 24.7 C 49 % 13.27 C
1042 01-06-2017 14:45:00 24.7 C 45 % 11.97 C
1043 01-06-2017 14:50:00 24.8 C 45 % 12.06 C
1044 01-06-2017 14:55:00 24.9 C 47 % 12.82 C
1045 01-06-2017 15:00:00 25.2 C 45 % 12.43 C
1046 01-06-2017 15:05:00 25.4 C 47 % 13.27 C
1047 01-06-2017 15:10:00 25.7 C 45 % 12.88 C
1048 01-06-2017 15:15:00 25.9 C 43 % 12.37 C
1049 01-06-2017 15:20:00 26.1 C 46 % 13.58 C
1050 01-06-2017 15:25:00 26.2 C 43 % 12.64 C
Sensor: Nr:Datum:Temp:Feuchte:Taupunkt:
Aussen-T/F 1051 01-06-2017 15:30:00 26.4 C 42 % 12.46 C
1052 01-06-2017 15:35:00 26.6 C 43 % 13 C
1053 01-06-2017 15:40:00 26.8 C 42 % 12.82 C
1054 01-06-2017 15:45:00 26.8 C 42 % 12.82 C
1055 01-06-2017 15:50:00 27.2 C 40 % 12.43 C
1056 01-06-2017 15:55:00 27.7 C 39 % 12.49 C
1057 01-06-2017 16:00:00 27.8 C 39 % 12.58 C
1058 01-06-2017 16:05:00 28 C 38 % 12.36 C
1059 01-06-2017 16:10:00 28.2 C 37 % 12.13 C
1060 01-06-2017 16:15:00 27.9 C 39 % 12.67 C
1061 01-06-2017 16:20:00 27.6 C 38 % 12.01 C
1062 01-06-2017 16:25:00 27.7 C 39 % 12.49 C
1063 01-06-2017 16:30:00 27.9 C 39 % 12.67 C
1064 01-06-2017 16:35:00 28.1 C 39 % 12.85 C
1065 01-06-2017 16:40:00 28.3 C 39 % 13.02 C
1066 01-06-2017 16:45:00 28.7 C 36 % 12.16 C
1067 01-06-2017 16:50:00 28.8 C 37 % 12.66 C
1068 01-06-2017 16:55:00 28.8 C 38 % 13.07 C
1069 01-06-2017 17:00:00 28.9 C 38 % 13.16 C
1070 01-06-2017 17:05:00 29.2 C 39 % 13.82 C
1071 01-06-2017 17:10:00 29.4 C 37 % 13.19 C
1072 01-06-2017 17:15:00 28.7 C 36 % 12.16 C
1073 01-06-2017 17:20:00 28.2 C 39 % 12.93 C
1074 01-06-2017 17:25:00 27.8 C 39 % 12.58 C
1075 01-06-2017 17:30:00 27.6 C 40 % 12.79 C
Sensor: Nr:Datum:Temp:Feuchte:Taupunkt:
Aussen-T/F 1076 01-06-2017 17:35:00 27.7 C 39 % 12.49 C
1077 01-06-2017 17:40:00 27.7 C 39 % 12.49 C
1078 01-06-2017 17:45:00 27.8 C 39 % 12.58 C
1079 01-06-2017 17:50:00 27.5 C 42 % 13.44 C
1080 01-06-2017 17:55:00 27.3 C 44 % 13.98 C
1081 01-06-2017 18:00:00 27.3 C 44 % 13.98 C
1082 01-06-2017 18:05:00 27.3 C 47 % 15 C
1083 01-06-2017 18:10:00 27.4 C 52 % 16.67 C
1084 01-06-2017 18:15:00 27.5 C 54 % 17.36 C
1085 01-06-2017 18:20:00 27.6 C 51 % 16.55 C
1086 01-06-2017 18:25:00 27.8 C 53 % 17.34 C
1087 01-06-2017 18:30:00 27.7 C 52 % 16.95 C
1088 01-06-2017 18:35:00 27.4 C 52 % 16.67 C
1089 01-06-2017 18:40:00 27 C 53 % 16.6 C
1090 01-06-2017 18:45:00 26.5 C 53 % 16.14 C
1091 01-06-2017 18:50:00 25.9 C 54 % 15.88 C
1092 01-06-2017 18:55:00 25.4 C 56 % 15.99 C
1093 01-06-2017 19:00:00 25.2 C 57 % 16.08 C
1094 01-06-2017 19:05:00 25.1 C 57 % 15.98 C
1095 01-06-2017 19:10:00 24.9 C 58 % 16.07 C
1096 01-06-2017 19:15:00 24.8 C 57 % 15.7 C
1097 01-06-2017 19:20:00 24.6 C 57 % 15.52 C
1098 01-06-2017 19:25:00 24.2 C 58 % 15.42 C
1099 01-06-2017 19:30:00 23.9 C 59 % 15.4 C
1100 01-06-2017 19:35:00 23.6 C 60 % 15.38 C
Sensor: Nr:Datum:Temp:Feuchte:Taupunkt:
Aussen-T/F 1101 01-06-2017 19:40:00 23.3 C 61 % 15.36 C
1102 01-06-2017 19:45:00 23.2 C 61 % 15.26 C
1103 01-06-2017 19:50:00 23 C 62 % 15.33 C
1104 01-06-2017 19:55:00 22.8 C 62 % 15.14 C
1105 01-06-2017 20:00:00 22.7 C 62 % 15.05 C
1106 01-06-2017 20:05:00 22.6 C 62 % 14.95 C
1107 01-06-2017 20:10:00 22.4 C 63 % 15.01 C
1108 01-06-2017 20:15:00 22.3 C 63 % 14.92 C
1109 01-06-2017 20:20:00 22.3 C 63 % 14.92 C
1110 01-06-2017 20:25:00 22.2 C 63 % 14.82 C
1111 01-06-2017 20:30:00 22.1 C 63 % 14.73 C
1112 01-06-2017 20:35:00 22.1 C 63 % 14.73 C
1113 01-06-2017 20:40:00 22.1 C 63 % 14.73 C
1114 01-06-2017 20:45:00 22 C 63 % 14.63 C
1115 01-06-2017 20:50:00 21.9 C 63 % 14.54 C
1116 01-06-2017 20:55:00 21.9 C 63 % 14.54 C
1117 01-06-2017 21:00:00 21.9 C 63 % 14.54 C
1118 01-06-2017 21:05:00 21.9 C 62 % 14.29 C
1119 01-06-2017 21:10:00 21.8 C 62 % 14.2 C
1120 01-06-2017 21:15:00 21.6 C 63 % 14.26 C
1121 01-06-2017 21:20:00 21.4 C 63 % 14.07 C
1122 01-06-2017 21:25:00 21.2 C 63 % 13.88 C
1123 01-06-2017 21:30:00 21.1 C 64 % 14.03 C
1124 01-06-2017 21:35:00 20.8 C 64 % 13.74 C
1125 01-06-2017 21:40:00 20.7 C 64 % 13.65 C
Sensor: Nr:Datum:Temp:Feuchte:Taupunkt:
Aussen-T/F 1126 01-06-2017 21:45:00 20.6 C 64 % 13.55 C
1127 01-06-2017 21:50:00 20.4 C 65 % 13.6 C
1128 01-06-2017 21:55:00 20.3 C 65 % 13.51 C
1129 01-06-2017 22:00:00 20.2 C 65 % 13.41 C
1130 01-06-2017 22:05:00 20.1 C 65 % 13.32 C
1131 01-06-2017 22:10:00 20 C 66 % 13.46 C
1132 01-06-2017 22:15:00 19.9 C 67 % 13.59 C
1133 01-06-2017 22:20:00 19.8 C 67 % 13.5 C
1134 01-06-2017 22:25:00 19.7 C 67 % 13.4 C
1135 01-06-2017 22:30:00 19.5 C 68 % 13.44 C
1136 01-06-2017 22:35:00 19.4 C 68 % 13.34 C
1137 01-06-2017 22:40:00 19.3 C 69 % 13.47 C
1138 01-06-2017 22:45:00 19.1 C 70 % 13.5 C
1139 01-06-2017 22:50:00 18.8 C 70 % 13.22 C
1140 01-06-2017 22:55:00 18.6 C 71 % 13.24 C
1141 01-06-2017 23:00:00 18.4 C 72 % 13.26 C
1142 01-06-2017 23:05:00 18.2 C 73 % 13.28 C
1143 01-06-2017 23:10:00 18.1 C 74 % 13.4 C
1144 01-06-2017 23:15:00 17.9 C 75 % 13.41 C
1145 01-06-2017 23:20:00 17.7 C 75 % 13.22 C
1146 01-06-2017 23:25:00 17.6 C 76 % 13.32 C
1147 01-06-2017 23:30:00 17.3 C 77 % 13.23 C
1148 01-06-2017 23:35:00 17.2 C 77 % 13.14 C
1149 01-06-2017 23:40:00 17.2 C 78 % 13.33 C
1150 01-06-2017 23:45:00 17.1 C 79 % 13.43 C
Sensor: Nr:Datum:Temp:Feuchte:Taupunkt:
Aussen-T/F 1151 01-06-2017 23:50:00 16.9 C 79 % 13.24 C
1152 01-06-2017 23:55:00 16.7 C 80 % 13.23 C
1153 02-06-2017 00:00:00 16.7 C 80 % 13.23 C
1154 02-06-2017 00:05:00 16.7 C 80 % 13.23 C
1155 02-06-2017 00:10:00 16.6 C 80 % 13.14 C
1156 02-06-2017 00:15:00 16.6 C 80 % 13.14 C
1157 02-06-2017 00:20:00 16.4 C 81 % 13.13 C
1158 02-06-2017 00:25:00 16.3 C 81 % 13.04 C
1159 02-06-2017 00:30:00 16.2 C 82 % 13.13 C
1160 02-06-2017 00:35:00 16.1 C 82 % 13.03 C
1161 02-06-2017 00:40:00 16 C 83 % 13.12 C
1162 02-06-2017 00:45:00 15.9 C 83 % 13.02 C
1163 02-06-2017 00:50:00 15.8 C 83 % 12.92 C
1164 02-06-2017 00:55:00 15.8 C 84 % 13.1 C
1165 02-06-2017 01:00:00 15.7 C 84 % 13.01 C
1166 02-06-2017 01:05:00 15.6 C 85 % 13.09 C
1167 02-06-2017 01:10:00 15.6 C 85 % 13.09 C
1168 02-06-2017 01:15:00 15.6 C 85 % 13.09 C
1169 02-06-2017 01:20:00 15.5 C 85 % 12.99 C
1170 02-06-2017 01:25:00 15.4 C 85 % 12.89 C
1171 02-06-2017 01:30:00 15.3 C 85 % 12.79 C
1172 02-06-2017 01:35:00 15.3 C 86 % 12.97 C
1173 02-06-2017 01:40:00 15.2 C 86 % 12.88 C
1174 02-06-2017 01:45:00 15.2 C 86 % 12.88 C
1175 02-06-2017 01:50:00 15.1 C 86 % 12.78 C
Sensor: Nr:Datum:Temp:Feuchte:Taupunkt:
Aussen-T/F 1176 02-06-2017 01:55:00 15.1 C 86 % 12.78 C
1177 02-06-2017 02:00:00 15 C 87 % 12.86 C
1178 02-06-2017 02:05:00 14.9 C 87 % 12.76 C
1179 02-06-2017 02:10:00 14.9 C 87 % 12.76 C
1180 02-06-2017 02:15:00 14.8 C 87 % 12.66 C
1181 02-06-2017 02:20:00 14.8 C 88 % 12.83 C
1182 02-06-2017 02:25:00 14.8 C 88 % 12.83 C
1183 02-06-2017 02:30:00 14.8 C 87 % 12.66 C
1184 02-06-2017 02:35:00 14.7 C 88 % 12.73 C
1185 02-06-2017 02:40:00 14.7 C 88 % 12.73 C
1186 02-06-2017 02:45:00 14.7 C 88 % 12.73 C
1187 02-06-2017 02:50:00 14.6 C 88 % 12.64 C
1188 02-06-2017 02:55:00 14.5 C 88 % 12.54 C
1189 02-06-2017 03:00:00 14.4 C 88 % 12.44 C
1190 02-06-2017 03:05:00 14.4 C 88 % 12.44 C
1191 02-06-2017 03:10:00 14.4 C 88 % 12.44 C
1192 02-06-2017 03:15:00 14.3 C 88 % 12.34 C
1193 02-06-2017 03:20:00 14.3 C 88 % 12.34 C
1194 02-06-2017 03:25:00 14.2 C 88 % 12.24 C
1195 02-06-2017 03:30:00 14.2 C 89 % 12.41 C
1196 02-06-2017 03:35:00 14.1 C 89 % 12.32 C
1197 02-06-2017 03:40:00 14.1 C 90 % 12.49 C
1198 02-06-2017 03:45:00 14.1 C 90 % 12.49 C
1199 02-06-2017 03:50:00 14.1 C 91 % 12.65 C
1200 02-06-2017 03:55:00 14.1 C 90 % 12.49 C
Sensor: Nr:Datum:Temp:Feuchte:Taupunkt:
Aussen-T/F 1201 02-06-2017 04:00:00 13.9 C 90 % 12.29 C
1202 02-06-2017 04:05:00 13.9 C 90 % 12.29 C
1203 02-06-2017 04:10:00 13.9 C 90 % 12.29 C
1204 02-06-2017 04:15:00 13.9 C 90 % 12.29 C
1205 02-06-2017 04:20:00 13.8 C 90 % 12.19 C
1206 02-06-2017 04:25:00 13.8 C 91 % 12.36 C
1207 02-06-2017 04:30:00 13.8 C 91 % 12.36 C
1208 02-06-2017 04:35:00 13.9 C 91 % 12.46 C
1209 02-06-2017 04:40:00 13.9 C 92 % 12.62 C
1210 02-06-2017 04:45:00 14.1 C 92 % 12.82 C
1211 02-06-2017 04:50:00 14.2 C 92 % 12.92 C
1212 02-06-2017 04:55:00 14.3 C 92 % 13.02 C
1213 02-06-2017 05:00:00 14.5 C 91 % 13.05 C
1214 02-06-2017 05:05:00 14.7 C 91 % 13.25 C
1215 02-06-2017 05:10:00 14.8 C 90 % 13.18 C
1216 02-06-2017 05:15:00 14.9 C 90 % 13.28 C
1217 02-06-2017 05:20:00 15 C 90 % 13.37 C
1218 02-06-2017 05:25:00 15.1 C 90 % 13.47 C
1219 02-06-2017 05:30:00 15.1 C 90 % 13.47 C
1220 02-06-2017 05:35:00 15.1 C 90 % 13.47 C
1221 02-06-2017 05:40:00 15.1 C 90 % 13.47 C
1222 02-06-2017 05:45:00 15.1 C 90 % 13.47 C
1223 02-06-2017 05:50:00 15.1 C 90 % 13.47 C
1224 02-06-2017 05:55:00 15.1 C 90 % 13.47 C
1225 02-06-2017 06:00:00 15.1 C 90 % 13.47 C
Sensor: Nr:Datum:Temp:Feuchte:Taupunkt:
Aussen-T/F 1226 02-06-2017 06:05:00 15.1 C 90 % 13.47 C
1227 02-06-2017 06:10:00 15.2 C 90 % 13.57 C
1228 02-06-2017 06:15:00 15.2 C 90 % 13.57 C
1229 02-06-2017 06:20:00 15.2 C 90 % 13.57 C
1230 02-06-2017 06:25:00 15.2 C 89 % 13.4 C
1231 02-06-2017 06:30:00 15.1 C 89 % 13.3 C
1232 02-06-2017 06:35:00 15 C 89 % 13.2 C
1233 02-06-2017 06:40:00 14.9 C 89 % 13.1 C
1234 02-06-2017 06:45:00 14.8 C 89 % 13.01 C
1235 02-06-2017 06:50:00 14.8 C 90 % 13.18 C
1236 02-06-2017 06:55:00 14.8 C 90 % 13.18 C
1237 02-06-2017 07:00:00 14.8 C 91 % 13.35 C
1238 02-06-2017 07:05:00 14.8 C 91 % 13.35 C
1239 02-06-2017 07:10:00 14.8 C 91 % 13.35 C
1240 02-06-2017 07:15:00 14.8 C 91 % 13.35 C
1241 02-06-2017 07:20:00 14.9 C 91 % 13.44 C
1242 02-06-2017 07:25:00 15 C 92 % 13.71 C
1243 02-06-2017 07:30:00 15.1 C 92 % 13.81 C
1244 02-06-2017 07:35:00 15.2 C 92 % 13.91 C
1245 02-06-2017 07:40:00 15.3 C 92 % 14.01 C
1246 02-06-2017 07:45:00 15.4 C 91 % 13.94 C
1247 02-06-2017 07:50:00 15.6 C 90 % 13.97 C
1248 02-06-2017 07:55:00 15.8 C 90 % 14.16 C
1249 02-06-2017 08:00:00 16 C 90 % 14.36 C
1250 02-06-2017 08:05:00 16.2 C 90 % 14.56 C
Sensor: Nr:Datum:Temp:Feuchte:Taupunkt:
Aussen-T/F 1251 02-06-2017 08:10:00 16.4 C 89 % 14.58 C
1252 02-06-2017 08:15:00 16.5 C 88 % 14.51 C
1253 02-06-2017 08:20:00 16.7 C 86 % 14.35 C
1254 02-06-2017 08:25:00 17 C 87 % 14.82 C
1255 02-06-2017 08:30:00 17.3 C 88 % 15.29 C
1256 02-06-2017 08:35:00 17.7 C 87 % 15.51 C
1257 02-06-2017 08:40:00 17.9 C 86 % 15.53 C
1258 02-06-2017 08:45:00 18.3 C 83 % 15.36 C
1259 02-06-2017 08:50:00 18.6 C 82 % 15.47 C
1260 02-06-2017 08:55:00 18.8 C 81 % 15.47 C
1261 02-06-2017 09:00:00 19.1 C 79 % 15.37 C
1262 02-06-2017 09:05:00 19.3 C 78 % 15.37 C
1263 02-06-2017 09:10:00 19.4 C 80 % 15.86 C
1264 02-06-2017 09:15:00 19.7 C 78 % 15.76 C
1265 02-06-2017 09:20:00 19.8 C 78 % 15.85 C
1266 02-06-2017 09:25:00 20 C 77 % 15.85 C
1267 02-06-2017 09:30:00 20.2 C 80 % 16.64 C
1268 02-06-2017 09:35:00 20.4 C 80 % 16.83 C
1269 02-06-2017 09:40:00 20.4 C 76 % 16.03 C
1270 02-06-2017 09:45:00 20.5 C 75 % 15.92 C
1271 02-06-2017 09:50:00 20.6 C 76 % 16.22 C
1272 02-06-2017 09:55:00 20.8 C 76 % 16.41 C
1273 02-06-2017 10:00:00 20.9 C 78 % 16.92 C
1274 02-06-2017 10:05:00 21.1 C 77 % 16.91 C
1275 02-06-2017 10:10:00 21.3 C 75 % 16.69 C
Sensor: Nr:Datum:Temp:Feuchte:Taupunkt:
Aussen-T/F 1276 02-06-2017 10:15:00 21.4 C 74 % 16.57 C
1277 02-06-2017 10:20:00 21.5 C 72 % 16.24 C
1278 02-06-2017 10:25:00 21.6 C 73 % 16.55 C
1279 02-06-2017 10:30:00 21.7 C 72 % 16.43 C
1280 02-06-2017 10:35:00 21.8 C 71 % 16.31 C
1281 02-06-2017 10:40:00 22 C 72 % 16.72 C
1282 02-06-2017 10:45:00 22.3 C 71 % 16.79 C
1283 02-06-2017 10:50:00 22.5 C 70 % 16.76 C
1284 02-06-2017 10:55:00 22.6 C 69 % 16.62 C
1285 02-06-2017 11:00:00 22.8 C 70 % 17.04 C
1286 02-06-2017 11:05:00 22.9 C 70 % 17.14 C
1287 02-06-2017 11:10:00 23.1 C 70 % 17.33 C
1288 02-06-2017 11:15:00 23.2 C 70 % 17.42 C
1289 02-06-2017 11:20:00 23.3 C 69 % 17.29 C
1290 02-06-2017 11:25:00 23.3 C 70 % 17.52 C
1291 02-06-2017 11:30:00 23.3 C 69 % 17.29 C
1292 02-06-2017 11:35:00 23.5 C 73 % 18.38 C
1293 02-06-2017 11:40:00 23.7 C 70 % 17.9 C
1294 02-06-2017 11:45:00 23.8 C 70 % 18 C
1295 02-06-2017 11:50:00 23.9 C 72 % 18.54 C
1296 02-06-2017 11:55:00 23.9 C 70 % 18.09 C
1297 02-06-2017 12:00:00 23.8 C 68 % 17.54 C
1298 02-06-2017 12:05:00 23.9 C 66 % 17.16 C
1299 02-06-2017 12:10:00 23.9 C 67 % 17.4 C
1300 02-06-2017 12:15:00 24.1 C 66 % 17.35 C
Sensor: Nr:Datum:Temp:Feuchte:Taupunkt:
Aussen-T/F 1301 02-06-2017 12:20:00 24.2 C 65 % 17.2 C
1302 02-06-2017 12:25:00 24.3 C 65 % 17.3 C
1303 02-06-2017 12:30:00 24.5 C 60 % 16.23 C
1304 02-06-2017 12:35:00 24.7 C 58 % 15.88 C
1305 02-06-2017 12:40:00 24.9 C 58 % 16.07 C
1306 02-06-2017 12:45:00 25.2 C 56 % 15.8 C
1307 02-06-2017 12:50:00 25.5 C 52 % 14.92 C
1308 02-06-2017 12:55:00 25.9 C 52 % 15.29 C
1309 02-06-2017 13:00:00 26.3 C 50 % 15.05 C
1310 02-06-2017 13:05:00 26.7 C 50 % 15.42 C
1311 02-06-2017 13:10:00 26.9 C 48 % 14.96 C
1312 02-06-2017 13:15:00 27.2 C 51 % 16.18 C
1313 02-06-2017 13:20:00 27.3 C 50 % 15.97 C
1314 02-06-2017 13:25:00 27.6 C 56 % 18.03 C
1315 02-06-2017 13:30:00 27.7 C 52 % 16.95 C
1316 02-06-2017 13:35:00 27.7 C 52 % 16.95 C
1317 02-06-2017 13:40:00 27.7 C 52 % 16.95 C
1318 02-06-2017 13:45:00 27.7 C 51 % 16.64 C
1319 02-06-2017 13:50:00 27.6 C 48 % 15.6 C
1320 02-06-2017 13:55:00 27.6 C 57 % 18.31 C
1321 02-06-2017 14:00:00 27.4 C 58 % 18.4 C
1322 02-06-2017 14:05:00 27.1 C 61 % 18.93 C
1323 02-06-2017 14:10:00 26.8 C 62 % 18.91 C
1324 02-06-2017 14:15:00 26.4 C 63 % 18.79 C
1325 02-06-2017 14:20:00 26 C 62 % 18.15 C
Sensor: Nr:Datum:Temp:Feuchte:Taupunkt:
Aussen-T/F 1326 02-06-2017 14:25:00 25.5 C 64 % 18.19 C
1327 02-06-2017 14:30:00 25.1 C 64 % 17.81 C
1328 02-06-2017 14:35:00 24.6 C 62 % 16.84 C
1329 02-06-2017 14:40:00 24.2 C 62 % 16.46 C
1330 02-06-2017 14:45:00 23.7 C 69 % 17.67 C
1331 02-06-2017 14:50:00 23 C 75 % 18.33 C
1332 02-06-2017 14:55:00 22.4 C 79 % 18.58 C
1333 02-06-2017 15:00:00 21.8 C 81 % 18.39 C
1334 02-06-2017 15:05:00 21.4 C 84 % 18.58 C
1335 02-06-2017 15:10:00 21 C 87 % 18.75 C
1336 02-06-2017 15:15:00 20.7 C 87 % 18.46 C
1337 02-06-2017 15:20:00 20.4 C 89 % 18.53 C
1338 02-06-2017 15:25:00 20.4 C 90 % 18.7 C
1339 02-06-2017 15:30:00 20.7 C 92 % 19.35 C
1340 02-06-2017 15:35:00 20.8 C 92 % 19.45 C
1341 02-06-2017 15:40:00 20.9 C 92 % 19.55 C
1342 02-06-2017 15:45:00 21 C 92 % 19.65 C
1343 02-06-2017 15:50:00 21.2 C 92 % 19.85 C
1344 02-06-2017 15:55:00 21.4 C 92 % 20.05 C
1345 02-06-2017 16:00:00 21.6 C 93 % 20.42 C
1346 02-06-2017 16:05:00 21.7 C 92 % 20.34 C
1347 02-06-2017 16:10:00 21.7 C 92 % 20.34 C
1348 02-06-2017 16:15:00 21.7 C 92 % 20.34 C
1349 02-06-2017 16:20:00 21.7 C 91 % 20.17 C
1350 02-06-2017 16:25:00 21.6 C 90 % 19.89 C
Sensor: Nr:Datum:Temp:Feuchte:Taupunkt:
Aussen-T/F 1351 02-06-2017 16:30:00 21.5 C 90 % 19.79 C
1352 02-06-2017 16:35:00 21.4 C 90 % 19.69 C
1353 02-06-2017 16:40:00 21.3 C 91 % 19.77 C
1354 02-06-2017 16:45:00 21.2 C 90 % 19.49 C
1355 02-06-2017 16:50:00 21.1 C 91 % 19.57 C
1356 02-06-2017 16:55:00 20.9 C 91 % 19.37 C
1357 02-06-2017 17:00:00 20.8 C 91 % 19.28 C
1358 02-06-2017 17:05:00 20.7 C 91 % 19.18 C
1359 02-06-2017 17:10:00 20.6 C 90 % 18.9 C
1360 02-06-2017 17:15:00 20.5 C 90 % 18.8 C
1361 02-06-2017 17:20:00 20.6 C 91 % 19.08 C
1362 02-06-2017 17:25:00 20.6 C 92 % 19.25 C
1363 02-06-2017 17:30:00 20.7 C 92 % 19.35 C
1364 02-06-2017 17:35:00 20.9 C 92 % 19.55 C
1365 02-06-2017 17:40:00 20.9 C 92 % 19.55 C
1366 02-06-2017 17:45:00 20.8 C 89 % 18.92 C
1367 02-06-2017 17:50:00 20.8 C 89 % 18.92 C
1368 02-06-2017 17:55:00 20.9 C 91 % 19.37 C
1369 02-06-2017 18:00:00 20.8 C 89 % 18.92 C
1370 02-06-2017 18:05:00 20.8 C 89 % 18.92 C
1371 02-06-2017 18:10:00 20.8 C 88 % 18.74 C
1372 02-06-2017 18:15:00 20.9 C 88 % 18.84 C
1373 02-06-2017 18:20:00 20.8 C 89 % 18.92 C
1374 02-06-2017 18:25:00 20.8 C 88 % 18.74 C
1375 02-06-2017 18:30:00 20.7 C 87 % 18.46 C
Sensor: Nr:Datum:Temp:Feuchte:Taupunkt:
Aussen-T/F 1376 02-06-2017 18:35:00 20.4 C 87 % 18.16 C
1377 02-06-2017 18:40:00 20.2 C 87 % 17.97 C
1378 02-06-2017 18:45:00 20 C 87 % 17.77 C
1379 02-06-2017 18:50:00 19.8 C 87 % 17.57 C
1380 02-06-2017 18:55:00 19.6 C 88 % 17.56 C
1381 02-06-2017 19:00:00 19.4 C 89 % 17.54 C
1382 02-06-2017 19:05:00 19.3 C 89 % 17.44 C
1383 02-06-2017 19:10:00 19.2 C 90 % 17.52 C
1384 02-06-2017 19:15:00 19.2 C 90 % 17.52 C
1385 02-06-2017 19:20:00 19.2 C 91 % 17.69 C
1386 02-06-2017 19:25:00 19.3 C 92 % 17.97 C
1387 02-06-2017 19:30:00 19.4 C 92 % 18.07 C
1388 02-06-2017 19:35:00 19.6 C 93 % 18.44 C
1389 02-06-2017 19:40:00 19.7 C 92 % 18.36 C
1390 02-06-2017 19:45:00 19.8 C 92 % 18.46 C
1391 02-06-2017 19:50:00 20 C 92 % 18.66 C
1392 02-06-2017 19:55:00 20.1 C 92 % 18.76 C
1393 02-06-2017 20:00:00 20.2 C 92 % 18.86 C
1394 02-06-2017 20:05:00 20.3 C 92 % 18.96 C
1395 02-06-2017 20:10:00 20.2 C 91 % 18.68 C
1396 02-06-2017 20:15:00 20.2 C 91 % 18.68 C
1397 02-06-2017 20:20:00 20.1 C 91 % 18.58 C
1398 02-06-2017 20:25:00 20 C 91 % 18.49 C
1399 02-06-2017 20:30:00 19.9 C 91 % 18.39 C
1400 02-06-2017 20:35:00 19.8 C 91 % 18.29 C
Sensor: Nr:Datum:Temp:Feuchte:Taupunkt:
Aussen-T/F 1401 02-06-2017 20:40:00 19.8 C 91 % 18.29 C
1402 02-06-2017 20:45:00 19.7 C 91 % 18.19 C
1403 02-06-2017 20:50:00 19.6 C 91 % 18.09 C
1404 02-06-2017 20:55:00 19.5 C 91 % 17.99 C
1405 02-06-2017 21:00:00 19.4 C 91 % 17.89 C
1406 02-06-2017 21:05:00 19.3 C 92 % 17.97 C
1407 02-06-2017 21:10:00 19.3 C 92 % 17.97 C
1408 02-06-2017 21:15:00 19.2 C 92 % 17.87 C
1409 02-06-2017 21:20:00 19.2 C 92 % 17.87 C
1410 02-06-2017 21:25:00 19.1 C 92 % 17.77 C
1411 02-06-2017 21:30:00 19.1 C 92 % 17.77 C
1412 02-06-2017 21:35:00 18.9 C 92 % 17.57 C
1413 02-06-2017 21:40:00 18.9 C 92 % 17.57 C
1414 02-06-2017 21:45:00 18.8 C 92 % 17.47 C
1415 02-06-2017 21:50:00 18.7 C 92 % 17.37 C
1416 02-06-2017 21:55:00 18.7 C 92 % 17.37 C
1417 02-06-2017 22:00:00 18.6 C 92 % 17.27 C
1418 02-06-2017 22:05:00 18.5 C 92 % 17.18 C
1419 02-06-2017 22:10:00 18.4 C 92 % 17.08 C
1420 02-06-2017 22:15:00 18.3 C 92 % 16.98 C
1421 02-06-2017 22:20:00 18.3 C 92 % 16.98 C
1422 02-06-2017 22:25:00 18.3 C 92 % 16.98 C
1423 02-06-2017 22:30:00 18.2 C 92 % 16.88 C
1424 02-06-2017 22:35:00 18.1 C 92 % 16.78 C
1425 02-06-2017 22:40:00 18 C 92 % 16.68 C
Sensor: Nr:Datum:Temp:Feuchte:Taupunkt:
Aussen-T/F 1426 02-06-2017 22:45:00 17.9 C 92 % 16.58 C
1427 02-06-2017 22:50:00 17.8 C 92 % 16.48 C
1428 02-06-2017 22:55:00 17.8 C 92 % 16.48 C
1429 02-06-2017 23:00:00 17.8 C 93 % 16.65 C
1430 02-06-2017 23:05:00 17.7 C 93 % 16.55 C
1431 02-06-2017 23:10:00 17.7 C 93 % 16.55 C
1432 02-06-2017 23:15:00 17.7 C 93 % 16.55 C
1433 02-06-2017 23:20:00 17.7 C 93 % 16.55 C
1434 02-06-2017 23:25:00 17.7 C 93 % 16.55 C
1435 02-06-2017 23:30:00 17.6 C 93 % 16.45 C
1436 02-06-2017 23:35:00 17.6 C 93 % 16.45 C
1437 02-06-2017 23:40:00 17.4 C 93 % 16.26 C
1438 02-06-2017 23:45:00 17.3 C 93 % 16.16 C
1439 02-06-2017 23:50:00 17.3 C 93 % 16.16 C
1440 02-06-2017 23:55:00 17.3 C 93 % 16.16 C
1441 03-06-2017 00:00:00 17.2 C 94 % 16.23 C
1442 03-06-2017 00:05:00 17.2 C 94 % 16.23 C
1443 03-06-2017 00:10:00 17.2 C 94 % 16.23 C
1444 03-06-2017 00:15:00 17.1 C 94 % 16.13 C
1445 03-06-2017 00:20:00 16.9 C 94 % 15.93 C
1446 03-06-2017 00:25:00 16.9 C 94 % 15.93 C
1447 03-06-2017 00:30:00 16.8 C 94 % 15.83 C
1448 03-06-2017 00:35:00 16.8 C 94 % 15.83 C
1449 03-06-2017 00:40:00 16.7 C 94 % 15.73 C
1450 03-06-2017 00:45:00 16.7 C 94 % 15.73 C
Sensor: Nr:Datum:Temp:Feuchte:Taupunkt:
Aussen-T/F 1451 03-06-2017 00:50:00 16.6 C 94 % 15.63 C
1452 03-06-2017 00:55:00 16.6 C 94 % 15.63 C
1453 03-06-2017 01:00:00 16.6 C 94 % 15.63 C
1454 03-06-2017 01:05:00 16.6 C 94 % 15.63 C
1455 03-06-2017 01:10:00 16.6 C 94 % 15.63 C
1456 03-06-2017 01:15:00 16.6 C 95 % 15.8 C
1457 03-06-2017 01:20:00 16.5 C 95 % 15.7 C
1458 03-06-2017 01:25:00 16.4 C 95 % 15.6 C
1459 03-06-2017 01:30:00 16.4 C 95 % 15.6 C
1460 03-06-2017 01:35:00 16.3 C 94 % 15.33 C
1461 03-06-2017 01:40:00 16.2 C 95 % 15.4 C
1462 03-06-2017 01:45:00 16.2 C 95 % 15.4 C
1463 03-06-2017 01:50:00 16.2 C 95 % 15.4 C
1464 03-06-2017 01:55:00 16.2 C 95 % 15.4 C
1465 03-06-2017 02:00:00 16.2 C 95 % 15.4 C
1466 03-06-2017 02:05:00 16.2 C 95 % 15.4 C
1467 03-06-2017 02:10:00 16.2 C 95 % 15.4 C
1468 03-06-2017 02:15:00 16.1 C 95 % 15.3 C
1469 03-06-2017 02:20:00 16.1 C 95 % 15.3 C
1470 03-06-2017 02:25:00 16 C 95 % 15.2 C
1471 03-06-2017 02:30:00 16.1 C 96 % 15.46 C
1472 03-06-2017 02:35:00 16.2 C 95 % 15.4 C
1473 03-06-2017 02:40:00 16.1 C 95 % 15.3 C
1474 03-06-2017 02:45:00 16 C 95 % 15.2 C
1475 03-06-2017 02:50:00 15.9 C 95 % 15.1 C
Sensor: Nr:Datum:Temp:Feuchte:Taupunkt:
Aussen-T/F 1476 03-06-2017 02:55:00 15.9 C 95 % 15.1 C
1477 03-06-2017 03:00:00 15.8 C 95 % 15 C
1478 03-06-2017 03:05:00 15.9 C 96 % 15.26 C
1479 03-06-2017 03:10:00 15.9 C 96 % 15.26 C
1480 03-06-2017 03:15:00 16 C 96 % 15.36 C
1481 03-06-2017 03:20:00 16.1 C 96 % 15.46 C
1482 03-06-2017 03:25:00 16.3 C 96 % 15.66 C
1483 03-06-2017 03:30:00 16.5 C 96 % 15.86 C
1484 03-06-2017 03:35:00 16.6 C 96 % 15.96 C
1485 03-06-2017 03:40:00 16.7 C 96 % 16.06 C
1486 03-06-2017 03:45:00 16.6 C 96 % 15.96 C
1487 03-06-2017 03:50:00 16.6 C 96 % 15.96 C
1488 03-06-2017 03:55:00 16.6 C 96 % 15.96 C
1489 03-06-2017 04:00:00 16.5 C 96 % 15.86 C
1490 03-06-2017 04:05:00 16.4 C 96 % 15.76 C
1491 03-06-2017 04:10:00 16.3 C 96 % 15.66 C
1492 03-06-2017 04:15:00 16.3 C 96 % 15.66 C
1493 03-06-2017 04:20:00 16.2 C 96 % 15.56 C
1494 03-06-2017 04:25:00 16.1 C 95 % 15.3 C
1495 03-06-2017 04:30:00 16.1 C 96 % 15.46 C
1496 03-06-2017 04:35:00 16 C 96 % 15.36 C
1497 03-06-2017 04:40:00 16.1 C 96 % 15.46 C
1498 03-06-2017 04:45:00 16.1 C 96 % 15.46 C
1499 03-06-2017 04:50:00 16.1 C 96 % 15.46 C
1500 03-06-2017 04:55:00 16.1 C 96 % 15.46 C
Sensor: Nr:Datum:Temp:Feuchte:Taupunkt:
Aussen-T/F 1501 03-06-2017 05:00:00 16.2 C 96 % 15.56 C
1502 03-06-2017 05:05:00 16.2 C 96 % 15.56 C
1503 03-06-2017 05:10:00 16.3 C 96 % 15.66 C
1504 03-06-2017 05:15:00 16.4 C 96 % 15.76 C
1505 03-06-2017 05:20:00 16.4 C 96 % 15.76 C
1506 03-06-2017 05:25:00 16.5 C 96 % 15.86 C
1507 03-06-2017 05:30:00 16.5 C 96 % 15.86 C
1508 03-06-2017 05:35:00 16.4 C 96 % 15.76 C
1509 03-06-2017 05:40:00 16.4 C 96 % 15.76 C
1510 03-06-2017 05:45:00 16.3 C 96 % 15.66 C
1511 03-06-2017 05:50:00 16.3 C 96 % 15.66 C
1512 03-06-2017 05:55:00 16.3 C 96 % 15.66 C
1513 03-06-2017 06:00:00 16.3 C 96 % 15.66 C
1514 03-06-2017 06:05:00 16.3 C 96 % 15.66 C
1515 03-06-2017 06:10:00 16.3 C 96 % 15.66 C
1516 03-06-2017 06:15:00 16.4 C 96 % 15.76 C
1517 03-06-2017 06:20:00 16.4 C 96 % 15.76 C
1518 03-06-2017 06:25:00 16.4 C 96 % 15.76 C
1519 03-06-2017 06:30:00 16.4 C 96 % 15.76 C
1520 03-06-2017 06:35:00 16.5 C 96 % 15.86 C
1521 03-06-2017 06:40:00 16.6 C 97 % 16.12 C
1522 03-06-2017 06:45:00 16.7 C 97 % 16.22 C
1523 03-06-2017 06:50:00 16.7 C 97 % 16.22 C
1524 03-06-2017 06:55:00 16.8 C 97 % 16.32 C
1525 03-06-2017 07:00:00 16.9 C 97 % 16.42 C
Sensor: Nr:Datum:Temp:Feuchte:Taupunkt:
Aussen-T/F 1526 03-06-2017 07:05:00 17.1 C 97 % 16.62 C
1527 03-06-2017 07:10:00 17.2 C 97 % 16.72 C
1528 03-06-2017 07:15:00 17.2 C 97 % 16.72 C
1529 03-06-2017 07:20:00 17.3 C 96 % 16.66 C
1530 03-06-2017 07:25:00 17.3 C 97 % 16.82 C
1531 03-06-2017 07:30:00 17.4 C 97 % 16.92 C
1532 03-06-2017 07:35:00 17.5 C 96 % 16.85 C
1533 03-06-2017 07:40:00 17.5 C 96 % 16.85 C
1534 03-06-2017 07:45:00 17.4 C 96 % 16.76 C
1535 03-06-2017 07:50:00 17.4 C 96 % 16.76 C
1536 03-06-2017 07:55:00 17.5 C 96 % 16.85 C
1537 03-06-2017 08:00:00 17.6 C 96 % 16.95 C
1538 03-06-2017 08:05:00 17.6 C 96 % 16.95 C
1539 03-06-2017 08:10:00 17.6 C 96 % 16.95 C
1540 03-06-2017 08:15:00 17.7 C 96 % 17.05 C
1541 03-06-2017 08:20:00 17.7 C 96 % 17.05 C
1542 03-06-2017 08:25:00 17.7 C 96 % 17.05 C
1543 03-06-2017 08:30:00 17.7 C 96 % 17.05 C
1544 03-06-2017 08:35:00 17.8 C 96 % 17.15 C
1545 03-06-2017 08:40:00 17.8 C 95 % 16.99 C
1546 03-06-2017 08:45:00 17.9 C 95 % 17.09 C
1547 03-06-2017 08:50:00 18 C 95 % 17.19 C
1548 03-06-2017 08:55:00 18.1 C 95 % 17.29 C
1549 03-06-2017 09:00:00 18.1 C 95 % 17.29 C
1550 03-06-2017 09:05:00 18.2 C 95 % 17.39 C
Sensor: Nr:Datum:Temp:Feuchte:Taupunkt:
Aussen-T/F 1551 03-06-2017 09:10:00 18.3 C 95 % 17.48 C
1552 03-06-2017 09:15:00 18.3 C 95 % 17.48 C
1553 03-06-2017 09:20:00 18.4 C 94 % 17.42 C
1554 03-06-2017 09:25:00 18.4 C 94 % 17.42 C
1555 03-06-2017 09:30:00 18.6 C 94 % 17.62 C
1556 03-06-2017 09:35:00 18.7 C 94 % 17.71 C
1557 03-06-2017 09:40:00 18.7 C 94 % 17.71 C
1558 03-06-2017 09:45:00 18.8 C 94 % 17.81 C
1559 03-06-2017 09:50:00 18.9 C 94 % 17.91 C
1560 03-06-2017 09:55:00 19 C 93 % 17.84 C
1561 03-06-2017 10:00:00 19.1 C 93 % 17.94 C
1562 03-06-2017 10:05:00 19.2 C 93 % 18.04 C
1563 03-06-2017 10:10:00 19.2 C 93 % 18.04 C
1564 03-06-2017 10:15:00 19.3 C 93 % 18.14 C
1565 03-06-2017 10:20:00 19.4 C 93 % 18.24 C
1566 03-06-2017 10:25:00 19.5 C 93 % 18.34 C
1567 03-06-2017 10:30:00 19.6 C 93 % 18.44 C
1568 03-06-2017 10:35:00 19.6 C 93 % 18.44 C
1569 03-06-2017 10:40:00 19.7 C 93 % 18.54 C
1570 03-06-2017 10:45:00 19.8 C 93 % 18.63 C
1571 03-06-2017 10:50:00 20 C 93 % 18.83 C
1572 03-06-2017 10:55:00 20.1 C 93 % 18.93 C
1573 03-06-2017 11:00:00 20.2 C 92 % 18.86 C
1574 03-06-2017 11:05:00 20.3 C 92 % 18.96 C
1575 03-06-2017 11:10:00 20.5 C 92 % 19.15 C
Sensor: Nr:Datum:Temp:Feuchte:Taupunkt:
Aussen-T/F 1576 03-06-2017 11:15:00 20.7 C 92 % 19.35 C
1577 03-06-2017 11:20:00 20.8 C 91 % 19.28 C
1578 03-06-2017 11:25:00 20.9 C 90 % 19.2 C
1579 03-06-2017 11:30:00 21 C 89 % 19.12 C
1580 03-06-2017 11:35:00 21.1 C 88 % 19.03 C
1581 03-06-2017 11:40:00 21.2 C 88 % 19.13 C
1582 03-06-2017 11:45:00 21.3 C 88 % 19.23 C
1583 03-06-2017 11:50:00 21.5 C 88 % 19.43 C
1584 03-06-2017 11:55:00 21.7 C 89 % 19.81 C
1585 03-06-2017 12:00:00 21.7 C 87 % 19.44 C
1586 03-06-2017 12:05:00 21.9 C 88 % 19.82 C
1587 03-06-2017 12:10:00 22.1 C 85 % 19.46 C
1588 03-06-2017 12:15:00 22.2 C 83 % 19.17 C
1589 03-06-2017 12:20:00 22.4 C 81 % 18.98 C
1590 03-06-2017 12:25:00 22.7 C 82 % 19.47 C
1591 03-06-2017 12:30:00 22.8 C 82 % 19.56 C
1592 03-06-2017 12:35:00 23 C 82 % 19.76 C
1593 03-06-2017 12:40:00 23.2 C 81 % 19.76 C
1594 03-06-2017 12:45:00 23.3 C 80 % 19.65 C
1595 03-06-2017 12:50:00 23.5 C 78 % 19.44 C
1596 03-06-2017 12:55:00 23.7 C 77 % 19.43 C
1597 03-06-2017 13:00:00 23.9 C 75 % 19.2 C
1598 03-06-2017 13:05:00 24.1 C 75 % 19.39 C
1599 03-06-2017 13:10:00 24.3 C 76 % 19.8 C
1600 03-06-2017 13:15:00 24.2 C 73 % 19.05 C
Sensor: Nr:Datum:Temp:Feuchte:Taupunkt:
Aussen-T/F 1601 03-06-2017 13:20:00 23.9 C 72 % 18.54 C
1602 03-06-2017 13:25:00 21.9 C 72 % 16.62 C
1603 03-06-2017 13:30:00 19.4 C 80 % 15.86 C
1604 03-06-2017 13:35:00 18.4 C 86 % 16.02 C
1605 03-06-2017 13:40:00 18.2 C 89 % 16.36 C
1606 03-06-2017 13:45:00 18.3 C 92 % 16.98 C
1607 03-06-2017 13:50:00 18.5 C 93 % 17.35 C
1608 03-06-2017 13:55:00 18.6 C 93 % 17.45 C
1609 03-06-2017 14:00:00 18.7 C 93 % 17.54 C
1610 03-06-2017 14:05:00 18.8 C 93 % 17.64 C
1611 03-06-2017 14:10:00 19.1 C 94 % 18.11 C
1612 03-06-2017 14:15:00 19.2 C 94 % 18.21 C
1613 03-06-2017 14:20:00 19.2 C 93 % 18.04 C
1614 03-06-2017 14:25:00 19.2 C 94 % 18.21 C
1615 03-06-2017 14:30:00 19.1 C 94 % 18.11 C
1616 03-06-2017 14:35:00 19 C 94 % 18.01 C
1617 03-06-2017 14:40:00 18.9 C 94 % 17.91 C
1618 03-06-2017 14:45:00 19.2 C 95 % 18.38 C
1619 03-06-2017 14:50:00 19.5 C 95 % 18.68 C
1620 03-06-2017 14:55:00 19.9 C 96 % 19.24 C
1621 03-06-2017 15:00:00 20.6 C 97 % 20.11 C
1622 03-06-2017 15:05:00 20.6 C 96 % 19.94 C
1623 03-06-2017 15:10:00 20.6 C 95 % 19.77 C
1624 03-06-2017 15:15:00 20.6 C 95 % 19.77 C
1625 03-06-2017 15:20:00 20.7 C 95 % 19.87 C
Sensor: Nr:Datum:Temp:Feuchte:Taupunkt:
Aussen-T/F 1626 03-06-2017 15:25:00 20.8 C 94 % 19.8 C
1627 03-06-2017 15:30:00 20.9 C 95 % 20.07 C
1628 03-06-2017 15:35:00 21.2 C 95 % 20.37 C
1629 03-06-2017 15:40:00 21.7 C 96 % 21.03 C
1630 03-06-2017 15:45:00 21.8 C 95 % 20.96 C
1631 03-06-2017 15:50:00 21.8 C 95 % 20.96 C
1632 03-06-2017 15:55:00 22.1 C 95 % 21.26 C
1633 03-06-2017 16:00:00 22.1 C 95 % 21.26 C
1634 03-06-2017 16:05:00 22.1 C 94 % 21.09 C
1635 03-06-2017 16:10:00 21.9 C 94 % 20.89 C
1636 03-06-2017 16:15:00 21.7 C 93 % 20.52 C
1637 03-06-2017 16:20:00 21.6 C 93 % 20.42 C
1638 03-06-2017 16:25:00 21.6 C 94 % 20.59 C
1639 03-06-2017 16:30:00 21.7 C 94 % 20.69 C
1640 03-06-2017 16:35:00 21.7 C 94 % 20.69 C
1641 03-06-2017 16:40:00 21.7 C 94 % 20.69 C
1642 03-06-2017 16:45:00 21.8 C 94 % 20.79 C
1643 03-06-2017 16:50:00 22.1 C 94 % 21.09 C
1644 03-06-2017 16:55:00 22.2 C 94 % 21.19 C
1645 03-06-2017 17:00:00 22.3 C 94 % 21.29 C
1646 03-06-2017 17:05:00 22.3 C 94 % 21.29 C
1647 03-06-2017 17:10:00 22.2 C 94 % 21.19 C
1648 03-06-2017 17:15:00 22.2 C 94 % 21.19 C
1649 03-06-2017 17:20:00 22.2 C 94 % 21.19 C
1650 03-06-2017 17:25:00 22.2 C 94 % 21.19 C
Sensor: Nr:Datum:Temp:Feuchte:Taupunkt:
Aussen-T/F 1651 03-06-2017 17:30:00 22.3 C 94 % 21.29 C
1652 03-06-2017 17:35:00 22.4 C 94 % 21.39 C
1653 03-06-2017 17:40:00 22.4 C 94 % 21.39 C
1654 03-06-2017 17:45:00 22.4 C 94 % 21.39 C
1655 03-06-2017 17:50:00 22.5 C 94 % 21.48 C
1656 03-06-2017 17:55:00 22.6 C 93 % 21.41 C
1657 03-06-2017 18:00:00 22.7 C 94 % 21.68 C
1658 03-06-2017 18:05:00 22.7 C 93 % 21.51 C
1659 03-06-2017 18:10:00 22.6 C 92 % 21.23 C
1660 03-06-2017 18:15:00 22.6 C 92 % 21.23 C
1661 03-06-2017 18:20:00 22.5 C 92 % 21.13 C
1662 03-06-2017 18:25:00 22.5 C 92 % 21.13 C
1663 03-06-2017 18:30:00 22.5 C 92 % 21.13 C
1664 03-06-2017 18:35:00 22.4 C 92 % 21.03 C
1665 03-06-2017 18:40:00 22.4 C 92 % 21.03 C
1666 03-06-2017 18:45:00 22.2 C 91 % 20.66 C
1667 03-06-2017 18:50:00 22.1 C 91 % 20.56 C
1668 03-06-2017 18:55:00 21.9 C 91 % 20.36 C
1669 03-06-2017 19:00:00 21.8 C 91 % 20.26 C
1670 03-06-2017 19:05:00 21.7 C 91 % 20.17 C
1671 03-06-2017 19:10:00 21.5 C 92 % 20.14 C
1672 03-06-2017 19:15:00 21.3 C 92 % 19.95 C
1673 03-06-2017 19:20:00 21.2 C 92 % 19.85 C
1674 03-06-2017 19:25:00 21.2 C 93 % 20.02 C
1675 03-06-2017 19:30:00 21.1 C 93 % 19.92 C
Sensor: Nr:Datum:Temp:Feuchte:Taupunkt:
Aussen-T/F 1676 03-06-2017 19:35:00 20.9 C 93 % 19.72 C
1677 03-06-2017 19:40:00 20.9 C 93 % 19.72 C
1678 03-06-2017 19:45:00 20.8 C 93 % 19.63 C
1679 03-06-2017 19:50:00 20.7 C 93 % 19.53 C
1680 03-06-2017 19:55:00 20.6 C 93 % 19.43 C
1681 03-06-2017 20:00:00 20.4 C 93 % 19.23 C
1682 03-06-2017 20:05:00 20.3 C 93 % 19.13 C
1683 03-06-2017 20:10:00 20.2 C 93 % 19.03 C
1684 03-06-2017 20:15:00 19.9 C 94 % 18.91 C
1685 03-06-2017 20:20:00 19.8 C 94 % 18.81 C
1686 03-06-2017 20:25:00 19.7 C 94 % 18.71 C
1687 03-06-2017 20:30:00 19.6 C 94 % 18.61 C
1688 03-06-2017 20:35:00 19.4 C 94 % 18.41 C
1689 03-06-2017 20:40:00 19.3 C 94 % 18.31 C
1690 03-06-2017 20:45:00 19.2 C 94 % 18.21 C
1691 03-06-2017 20:50:00 19.1 C 94 % 18.11 C
1692 03-06-2017 20:55:00 19.1 C 94 % 18.11 C
1693 03-06-2017 21:00:00 18.9 C 94 % 17.91 C
1694 03-06-2017 21:05:00 18.9 C 94 % 17.91 C
1695 03-06-2017 21:10:00 18.8 C 94 % 17.81 C
1696 03-06-2017 21:15:00 18.8 C 95 % 17.98 C
1697 03-06-2017 21:20:00 18.7 C 95 % 17.88 C
1698 03-06-2017 21:25:00 18.6 C 95 % 17.78 C
1699 03-06-2017 21:30:00 18.6 C 95 % 17.78 C
1700 03-06-2017 21:35:00 18.5 C 95 % 17.68 C
Sensor: Nr:Datum:Temp:Feuchte:Taupunkt:
Aussen-T/F 1701 03-06-2017 21:40:00 18.4 C 95 % 17.58 C
1702 03-06-2017 21:45:00 18.2 C 95 % 17.39 C
1703 03-06-2017 21:50:00 18.1 C 94 % 17.12 C
1704 03-06-2017 21:55:00 17.9 C 95 % 17.09 C
1705 03-06-2017 22:00:00 17.8 C 95 % 16.99 C
1706 03-06-2017 22:05:00 17.7 C 95 % 16.89 C
1707 03-06-2017 22:10:00 17.6 C 95 % 16.79 C
1708 03-06-2017 22:15:00 17.6 C 95 % 16.79 C
1709 03-06-2017 22:20:00 17.5 C 95 % 16.69 C
1710 03-06-2017 22:25:00 17.4 C 95 % 16.59 C
1711 03-06-2017 22:30:00 17.4 C 95 % 16.59 C
1712 03-06-2017 22:35:00 17.4 C 95 % 16.59 C
1713 03-06-2017 22:40:00 17.3 C 95 % 16.49 C
1714 03-06-2017 22:45:00 17.3 C 95 % 16.49 C
1715 03-06-2017 22:50:00 17.3 C 96 % 16.66 C
1716 03-06-2017 22:55:00 17.3 C 96 % 16.66 C
1717 03-06-2017 23:00:00 17.3 C 96 % 16.66 C
1718 03-06-2017 23:05:00 17.2 C 96 % 16.56 C
1719 03-06-2017 23:10:00 17.2 C 96 % 16.56 C
1720 03-06-2017 23:15:00 17.2 C 96 % 16.56 C
1721 03-06-2017 23:20:00 17.2 C 96 % 16.56 C
1722 03-06-2017 23:25:00 17.1 C 96 % 16.46 C
1723 03-06-2017 23:30:00 17.1 C 96 % 16.46 C
1724 03-06-2017 23:35:00 17.1 C 96 % 16.46 C
1725 03-06-2017 23:40:00 17 C 96 % 16.36 C
Sensor: Nr:Datum:Temp:Feuchte:Taupunkt:
Aussen-T/F 1726 03-06-2017 23:45:00 17 C 96 % 16.36 C
1727 03-06-2017 23:50:00 16.9 C 96 % 16.26 C
1728 03-06-2017 23:55:00 16.9 C 96 % 16.26 C
1729 04-06-2017 00:00:00 16.9 C 96 % 16.26 C
1730 04-06-2017 00:05:00 17 C 96 % 16.36 C
1731 04-06-2017 00:10:00 17 C 96 % 16.36 C
1732 04-06-2017 00:15:00 17 C 96 % 16.36 C
1733 04-06-2017 00:20:00 17 C 96 % 16.36 C
1734 04-06-2017 00:25:00 17.1 C 96 % 16.46 C
1735 04-06-2017 00:30:00 17.1 C 96 % 16.46 C
1736 04-06-2017 00:35:00 17.1 C 96 % 16.46 C
1737 04-06-2017 00:40:00 17 C 96 % 16.36 C
1738 04-06-2017 00:45:00 16.7 C 95 % 15.9 C
1739 04-06-2017 00:50:00 16.5 C 95 % 15.7 C
1740 04-06-2017 00:55:00 16.4 C 96 % 15.76 C
1741 04-06-2017 01:00:00 16.4 C 95 % 15.6 C
1742 04-06-2017 01:05:00 16.4 C 96 % 15.76 C
1743 04-06-2017 01:10:00 16.4 C 96 % 15.76 C
1744 04-06-2017 01:15:00 16.4 C 96 % 15.76 C
1745 04-06-2017 01:20:00 16.4 C 96 % 15.76 C
1746 04-06-2017 01:25:00 16.4 C 96 % 15.76 C
1747 04-06-2017 01:30:00 16.3 C 96 % 15.66 C
1748 04-06-2017 01:35:00 16.3 C 96 % 15.66 C
1749 04-06-2017 01:40:00 16.3 C 96 % 15.66 C
1750 04-06-2017 01:45:00 16.3 C 96 % 15.66 C
Sensor: Nr:Datum:Temp:Feuchte:Taupunkt:
Aussen-T/F 1751 04-06-2017 01:50:00 16.3 C 96 % 15.66 C
1752 04-06-2017 01:55:00 16.3 C 96 % 15.66 C
1753 04-06-2017 02:00:00 16.3 C 96 % 15.66 C
1754 04-06-2017 02:05:00 16.2 C 96 % 15.56 C
1755 04-06-2017 02:10:00 15.9 C 95 % 15.1 C
1756 04-06-2017 02:15:00 15.8 C 95 % 15 C
1757 04-06-2017 02:20:00 15.7 C 95 % 14.9 C
1758 04-06-2017 02:25:00 15.6 C 95 % 14.8 C
1759 04-06-2017 02:30:00 15.5 C 95 % 14.7 C
1760 04-06-2017 02:35:00 15.4 C 95 % 14.6 C
1761 04-06-2017 02:40:00 15.4 C 95 % 14.6 C
1762 04-06-2017 02:45:00 15.4 C 95 % 14.6 C
1763 04-06-2017 02:50:00 15.3 C 95 % 14.5 C
1764 04-06-2017 02:55:00 15.3 C 95 % 14.5 C
1765 04-06-2017 03:00:00 15.1 C 94 % 14.14 C
1766 04-06-2017 03:05:00 14.9 C 94 % 13.94 C
1767 04-06-2017 03:10:00 14.8 C 94 % 13.84 C
1768 04-06-2017 03:15:00 14.7 C 94 % 13.74 C
1769 04-06-2017 03:20:00 14.7 C 94 % 13.74 C
1770 04-06-2017 03:25:00 14.7 C 94 % 13.74 C
1771 04-06-2017 03:30:00 14.7 C 95 % 13.91 C
1772 04-06-2017 03:35:00 14.6 C 95 % 13.81 C
1773 04-06-2017 03:40:00 14.7 C 95 % 13.91 C
1774 04-06-2017 03:45:00 14.7 C 95 % 13.91 C
1775 04-06-2017 03:50:00 14.7 C 95 % 13.91 C
Sensor: Nr:Datum:Temp:Feuchte:Taupunkt:
Aussen-T/F 1776 04-06-2017 03:55:00 14.6 C 95 % 13.81 C
1777 04-06-2017 04:00:00 14.6 C 95 % 13.81 C
1778 04-06-2017 04:05:00 14.6 C 95 % 13.81 C
1779 04-06-2017 04:10:00 14.6 C 95 % 13.81 C
1780 04-06-2017 04:15:00 14.6 C 95 % 13.81 C
1781 04-06-2017 04:20:00 14.6 C 95 % 13.81 C
1782 04-06-2017 04:25:00 14.6 C 95 % 13.81 C
1783 04-06-2017 04:30:00 14.6 C 95 % 13.81 C
1784 04-06-2017 04:35:00 14.6 C 95 % 13.81 C
1785 04-06-2017 04:40:00 14.6 C 95 % 13.81 C
1786 04-06-2017 04:45:00 14.6 C 95 % 13.81 C
1787 04-06-2017 04:50:00 14.5 C 95 % 13.71 C
1788 04-06-2017 04:55:00 14.4 C 95 % 13.61 C
1789 04-06-2017 05:00:00 14.4 C 95 % 13.61 C
1790 04-06-2017 05:05:00 14.3 C 95 % 13.51 C
1791 04-06-2017 05:10:00 14.3 C 96 % 13.67 C
1792 04-06-2017 05:15:00 14.3 C 95 % 13.51 C
1793 04-06-2017 05:20:00 14.3 C 95 % 13.51 C
1794 04-06-2017 05:25:00 14.3 C 95 % 13.51 C
1795 04-06-2017 05:30:00 14.3 C 96 % 13.67 C
1796 04-06-2017 05:35:00 14.3 C 96 % 13.67 C
1797 04-06-2017 05:40:00 14.2 C 96 % 13.57 C
1798 04-06-2017 05:45:00 14.2 C 96 % 13.57 C
1799 04-06-2017 05:50:00 14.1 C 96 % 13.47 C
1800 04-06-2017 05:55:00 14.1 C 96 % 13.47 C
Sensor: Nr:Datum:Temp:Feuchte:Taupunkt:
Aussen-T/F 1801 04-06-2017 06:00:00 14 C 96 % 13.37 C
1802 04-06-2017 06:05:00 14 C 96 % 13.37 C
1803 04-06-2017 06:10:00 13.9 C 96 % 13.27 C
1804 04-06-2017 06:15:00 13.9 C 96 % 13.27 C
1805 04-06-2017 06:20:00 13.8 C 96 % 13.17 C
1806 04-06-2017 06:25:00 13.9 C 96 % 13.27 C
1807 04-06-2017 06:30:00 13.9 C 96 % 13.27 C
1808 04-06-2017 06:35:00 13.9 C 96 % 13.27 C
1809 04-06-2017 06:40:00 13.9 C 96 % 13.27 C
1810 04-06-2017 06:45:00 14 C 96 % 13.37 C
1811 04-06-2017 06:50:00 14.1 C 96 % 13.47 C
1812 04-06-2017 06:55:00 14.1 C 96 % 13.47 C
1813 04-06-2017 07:00:00 14.1 C 96 % 13.47 C
1814 04-06-2017 07:05:00 14.1 C 96 % 13.47 C
1815 04-06-2017 07:10:00 14.2 C 96 % 13.57 C
1816 04-06-2017 07:15:00 14.3 C 96 % 13.67 C
1817 04-06-2017 07:20:00 14.4 C 96 % 13.77 C
1818 04-06-2017 07:25:00 14.4 C 96 % 13.77 C
1819 04-06-2017 07:30:00 14.4 C 96 % 13.77 C
1820 04-06-2017 07:35:00 14.4 C 97 % 13.93 C
1821 04-06-2017 07:40:00 14.5 C 97 % 14.03 C
1822 04-06-2017 07:45:00 14.5 C 97 % 14.03 C
1823 04-06-2017 07:50:00 14.6 C 97 % 14.13 C
1824 04-06-2017 07:55:00 14.6 C 97 % 14.13 C
1825 04-06-2017 08:00:00 14.6 C 97 % 14.13 C
Sensor: Nr:Datum:Temp:Feuchte:Taupunkt:
Aussen-T/F 1826 04-06-2017 08:05:00 14.7 C 96 % 14.07 C
1827 04-06-2017 08:10:00 14.8 C 97 % 14.33 C
1828 04-06-2017 08:15:00 14.8 C 96 % 14.17 C
1829 04-06-2017 08:20:00 14.8 C 96 % 14.17 C
1830 04-06-2017 08:25:00 14.7 C 96 % 14.07 C
1831 04-06-2017 08:30:00 14.7 C 96 % 14.07 C
1832 04-06-2017 08:35:00 14.7 C 96 % 14.07 C
1833 04-06-2017 08:40:00 14.7 C 96 % 14.07 C
1834 04-06-2017 08:45:00 14.7 C 96 % 14.07 C
1835 04-06-2017 08:50:00 14.8 C 96 % 14.17 C
1836 04-06-2017 08:55:00 15 C 97 % 14.53 C
1837 04-06-2017 09:00:00 15.2 C 97 % 14.73 C
1838 04-06-2017 09:05:00 15.1 C 97 % 14.63 C
1839 04-06-2017 09:10:00 15.1 C 96 % 14.47 C
1840 04-06-2017 09:15:00 15.2 C 97 % 14.73 C
1841 04-06-2017 09:20:00 15.1 C 96 % 14.47 C
1842 04-06-2017 09:25:00 15 C 96 % 14.37 C
1843 04-06-2017 09:30:00 14.9 C 95 % 14.11 C
1844 04-06-2017 09:35:00 14.9 C 95 % 14.11 C
1845 04-06-2017 09:40:00 15.1 C 96 % 14.47 C
1846 04-06-2017 09:45:00 15.2 C 95 % 14.4 C
1847 04-06-2017 09:50:00 15.4 C 96 % 14.77 C
1848 04-06-2017 09:55:00 15.4 C 95 % 14.6 C
1849 04-06-2017 10:00:00 15.5 C 95 % 14.7 C
1850 04-06-2017 10:05:00 15.6 C 94 % 14.64 C
Sensor: Nr:Datum:Temp:Feuchte:Taupunkt:
Aussen-T/F 1851 04-06-2017 10:10:00 15.7 C 95 % 14.9 C
1852 04-06-2017 10:15:00 15.9 C 95 % 15.1 C
1853 04-06-2017 10:20:00 16.1 C 94 % 15.13 C
1854 04-06-2017 10:25:00 16.1 C 92 % 14.8 C
1855 04-06-2017 10:30:00 16 C 90 % 14.36 C
1856 04-06-2017 10:35:00 16.1 C 90 % 14.46 C
1857 04-06-2017 10:40:00 16.2 C 90 % 14.56 C
1858 04-06-2017 10:45:00 16.3 C 89 % 14.48 C
1859 04-06-2017 10:50:00 16.4 C 88 % 14.41 C
1860 04-06-2017 10:55:00 16.4 C 87 % 14.23 C
1861 04-06-2017 11:00:00 16.5 C 87 % 14.33 C
1862 04-06-2017 11:05:00 16.6 C 88 % 14.6 C
1863 04-06-2017 11:10:00 16.8 C 90 % 15.15 C
1864 04-06-2017 11:15:00 16.7 C 86 % 14.35 C
1865 04-06-2017 11:20:00 16.9 C 83 % 14 C
1866 04-06-2017 11:25:00 17 C 83 % 14.09 C
1867 04-06-2017 11:30:00 17.2 C 80 % 13.72 C
1868 04-06-2017 11:35:00 17.4 C 82 % 14.3 C
1869 04-06-2017 11:40:00 17.6 C 81 % 14.3 C
1870 04-06-2017 11:45:00 17.6 C 80 % 14.11 C
1871 04-06-2017 11:50:00 17.6 C 81 % 14.3 C
1872 04-06-2017 11:55:00 17.7 C 76 % 13.42 C
1873 04-06-2017 12:00:00 17.8 C 76 % 13.52 C
1874 04-06-2017 12:05:00 18 C 78 % 14.11 C
1875 04-06-2017 12:10:00 18.1 C 82 % 14.98 C
Sensor: Nr:Datum:Temp:Feuchte:Taupunkt:
Aussen-T/F 1876 04-06-2017 12:15:00 18.2 C 79 % 14.5 C
1877 04-06-2017 12:20:00 18.2 C 77 % 14.1 C
1878 04-06-2017 12:25:00 18.2 C 76 % 13.9 C
1879 04-06-2017 12:30:00 18 C 76 % 13.71 C
1880 04-06-2017 12:35:00 17.8 C 77 % 13.72 C
1881 04-06-2017 12:40:00 17.7 C 80 % 14.21 C
1882 04-06-2017 12:45:00 17.5 C 81 % 14.2 C
1883 04-06-2017 12:50:00 17.5 C 83 % 14.58 C
1884 04-06-2017 12:55:00 17.4 C 85 % 14.85 C
1885 04-06-2017 13:00:00 17.4 C 84 % 14.67 C
1886 04-06-2017 13:05:00 17.4 C 76 % 13.13 C
1887 04-06-2017 13:10:00 17.7 C 76 % 13.42 C
1888 04-06-2017 13:15:00 17.9 C 74 % 13.2 C
1889 04-06-2017 13:20:00 18.1 C 73 % 13.19 C
1890 04-06-2017 13:25:00 18.2 C 74 % 13.49 C
1891 04-06-2017 13:30:00 18.2 C 76 % 13.9 C
1892 04-06-2017 13:35:00 18.4 C 81 % 15.08 C
1893 04-06-2017 13:40:00 18.5 C 68 % 12.49 C
1894 04-06-2017 13:45:00 18.7 C 66 % 12.22 C
1895 04-06-2017 13:50:00 18.9 C 69 % 13.09 C
1896 04-06-2017 13:55:00 19.1 C 64 % 12.14 C
1897 04-06-2017 14:00:00 19.1 C 71 % 13.72 C
1898 04-06-2017 14:05:00 18.9 C 64 % 11.95 C
1899 04-06-2017 14:10:00 18.9 C 67 % 12.64 C
1900 04-06-2017 14:15:00 19.1 C 63 % 11.9 C
Sensor: Nr:Datum:Temp:Feuchte:Taupunkt:
Aussen-T/F 1901 04-06-2017 14:20:00 19.2 C 61 % 11.5 C
1902 04-06-2017 14:25:00 19.2 C 62 % 11.75 C
1903 04-06-2017 14:30:00 19.3 C 61 % 11.6 C
1904 04-06-2017 14:35:00 19.3 C 59 % 11.09 C
1905 04-06-2017 14:40:00 19.3 C 59 % 11.09 C
1906 04-06-2017 14:45:00 19.2 C 62 % 11.75 C
1907 04-06-2017 14:50:00 19.4 C 59 % 11.19 C
1908 04-06-2017 14:55:00 19.5 C 59 % 11.28 C
1909 04-06-2017 15:00:00 19.6 C 57 % 10.86 C
1910 04-06-2017 15:05:00 19.6 C 62 % 12.13 C
1911 04-06-2017 15:10:00 19.7 C 73 % 14.73 C
1912 04-06-2017 15:15:00 19.6 C 68 % 13.54 C
1913 04-06-2017 15:20:00 19.7 C 60 % 11.72 C
1914 04-06-2017 15:25:00 19.8 C 67 % 13.5 C
1915 04-06-2017 15:30:00 19.8 C 69 % 13.95 C
1916 04-06-2017 15:35:00 19.8 C 62 % 12.31 C
1917 04-06-2017 15:40:00 19.9 C 60 % 11.91 C
1918 04-06-2017 15:45:00 20.1 C 62 % 12.6 C
1919 04-06-2017 15:50:00 20.3 C 60 % 12.29 C
1920 04-06-2017 15:55:00 20.6 C 69 % 14.71 C
1921 04-06-2017 16:00:00 21.1 C 58 % 12.52 C
1922 04-06-2017 16:05:00 21.2 C 55 % 11.81 C
1923 04-06-2017 16:10:00 21.2 C 56 % 12.08 C
1924 04-06-2017 16:15:00 21.2 C 63 % 13.88 C
1925 04-06-2017 16:20:00 21.7 C 71 % 16.21 C
Sensor: Nr:Datum:Temp:Feuchte:Taupunkt:
Aussen-T/F 1926 04-06-2017 16:25:00 22.2 C 59 % 13.81 C
1927 04-06-2017 16:30:00 22.7 C 57 % 13.75 C
1928 04-06-2017 16:35:00 22.7 C 61 % 14.79 C
1929 04-06-2017 16:40:00 22.3 C 50 % 11.38 C
1930 04-06-2017 16:45:00 21.9 C 62 % 14.29 C
1931 04-06-2017 16:50:00 21.7 C 68 % 15.54 C
1932 04-06-2017 16:55:00 21.7 C 63 % 14.35 C
1933 04-06-2017 17:00:00 22.1 C 58 % 13.45 C
1934 04-06-2017 17:05:00 22.6 C 54 % 12.83 C
1935 04-06-2017 17:10:00 23 C 58 % 14.29 C
1936 04-06-2017 17:15:00 23.3 C 52 % 12.9 C
1937 04-06-2017 17:20:00 23.1 C 55 % 13.57 C
1938 04-06-2017 17:25:00 22.7 C 57 % 13.75 C
1939 04-06-2017 17:30:00 22.6 C 68 % 16.39 C
1940 04-06-2017 17:35:00 22.6 C 65 % 15.69 C
1941 04-06-2017 17:40:00 22.5 C 63 % 15.11 C
1942 04-06-2017 17:45:00 22.3 C 52 % 11.97 C
1943 04-06-2017 17:50:00 22.2 C 50 % 11.29 C
1944 04-06-2017 17:55:00 21.9 C 49 % 10.71 C
1945 04-06-2017 18:00:00 21.4 C 56 % 12.27 C
1946 04-06-2017 18:05:00 20.7 C 61 % 12.91 C
1947 04-06-2017 18:10:00 19.9 C 63 % 12.65 C
1948 04-06-2017 18:15:00 19.4 C 63 % 12.18 C
1949 04-06-2017 18:20:00 19.2 C 65 % 12.47 C
1950 04-06-2017 18:25:00 19.1 C 67 % 12.83 C
Sensor: Nr:Datum:Temp:Feuchte:Taupunkt:
Aussen-T/F 1951 04-06-2017 18:30:00 19.2 C 64 % 12.23 C
1952 04-06-2017 18:35:00 19.2 C 63 % 11.99 C
1953 04-06-2017 18:40:00 19.1 C 63 % 11.9 C
1954 04-06-2017 18:45:00 18.9 C 63 % 11.71 C
1955 04-06-2017 18:50:00 18.7 C 63 % 11.52 C
1956 04-06-2017 18:55:00 18.6 C 64 % 11.66 C
1957 04-06-2017 19:00:00 18.4 C 63 % 11.23 C
1958 04-06-2017 19:05:00 18.2 C 65 % 11.52 C
1959 04-06-2017 19:10:00 18.1 C 65 % 11.42 C
1960 04-06-2017 19:15:00 18.1 C 65 % 11.42 C
1961 04-06-2017 19:20:00 17.9 C 65 % 11.23 C
1962 04-06-2017 19:25:00 17.8 C 67 % 11.6 C
1963 04-06-2017 19:30:00 17.7 C 67 % 11.5 C
1964 04-06-2017 19:35:00 17.7 C 72 % 12.59 C
1965 04-06-2017 19:40:00 17.6 C 76 % 13.32 C
1966 04-06-2017 19:45:00 17.4 C 77 % 13.33 C
1967 04-06-2017 19:50:00 17.2 C 80 % 13.72 C
1968 04-06-2017 19:55:00 16.8 C 82 % 13.71 C
1969 04-06-2017 20:00:00 16.3 C 84 % 13.59 C
1970 04-06-2017 20:05:00 15.9 C 85 % 13.38 C
1971 04-06-2017 20:10:00 15.6 C 86 % 13.27 C
1972 04-06-2017 20:15:00 15.3 C 87 % 13.15 C
1973 04-06-2017 20:20:00 14.9 C 87 % 12.76 C
1974 04-06-2017 20:25:00 14.7 C 88 % 12.73 C
1975 04-06-2017 20:30:00 14.6 C 89 % 12.81 C
Sensor: Nr:Datum:Temp:Feuchte:Taupunkt:
Aussen-T/F 1976 04-06-2017 20:35:00 14.4 C 90 % 12.78 C
1977 04-06-2017 20:40:00 14.3 C 90 % 12.68 C
1978 04-06-2017 20:45:00 14.2 C 91 % 12.75 C
1979 04-06-2017 20:50:00 14.1 C 91 % 12.65 C
1980 04-06-2017 20:55:00 14 C 92 % 12.72 C
1981 04-06-2017 21:00:00 13.9 C 92 % 12.62 C
1982 04-06-2017 21:05:00 13.9 C 92 % 12.62 C
1983 04-06-2017 21:10:00 13.8 C 92 % 12.52 C
1984 04-06-2017 21:15:00 13.8 C 92 % 12.52 C
1985 04-06-2017 21:20:00 13.8 C 93 % 12.69 C
1986 04-06-2017 21:25:00 13.8 C 93 % 12.69 C
1987 04-06-2017 21:30:00 13.7 C 93 % 12.59 C
1988 04-06-2017 21:35:00 13.7 C 93 % 12.59 C
1989 04-06-2017 21:40:00 13.6 C 93 % 12.49 C
1990 04-06-2017 21:45:00 13.6 C 93 % 12.49 C
1991 04-06-2017 21:50:00 13.5 C 93 % 12.39 C
1992 04-06-2017 21:55:00 13.4 C 93 % 12.29 C
1993 04-06-2017 22:00:00 13.3 C 93 % 12.19 C
1994 04-06-2017 22:05:00 13.2 C 93 % 12.09 C
1995 04-06-2017 22:10:00 13.1 C 93 % 11.99 C
1996 04-06-2017 22:15:00 13 C 93 % 11.9 C
1997 04-06-2017 22:20:00 12.9 C 93 % 11.8 C
1998 04-06-2017 22:25:00 12.8 C 93 % 11.7 C
1999 04-06-2017 22:30:00 12.8 C 94 % 11.86 C
2000 04-06-2017 22:35:00 12.8 C 94 % 11.86 C
Sensor: Nr:Datum:Temp:Feuchte:Taupunkt:
Aussen-T/F 2001 04-06-2017 22:40:00 12.8 C 94 % 11.86 C
2002 04-06-2017 22:45:00 12.8 C 94 % 11.86 C
2003 04-06-2017 22:50:00 12.8 C 94 % 11.86 C
2004 04-06-2017 22:55:00 12.8 C 94 % 11.86 C
2005 04-06-2017 23:00:00 12.8 C 94 % 11.86 C
2006 04-06-2017 23:05:00 12.8 C 95 % 12.02 C
2007 04-06-2017 23:10:00 12.8 C 95 % 12.02 C
2008 04-06-2017 23:15:00 12.8 C 95 % 12.02 C
2009 04-06-2017 23:20:00 12.7 C 94 % 11.76 C
2010 04-06-2017 23:25:00 12.6 C 94 % 11.66 C
2011 04-06-2017 23:30:00 12.6 C 94 % 11.66 C
2012 04-06-2017 23:35:00 12.5 C 95 % 11.72 C
2013 04-06-2017 23:40:00 12.4 C 95 % 11.62 C
2014 04-06-2017 23:45:00 12.4 C 94 % 11.46 C
2015 04-06-2017 23:50:00 12.3 C 94 % 11.36 C
2016 04-06-2017 23:55:00 12.3 C 94 % 11.36 C

Legende:
   Min
   Max


Maximal/Minimal-Werte vom 29.05.2017 - 04.06.2017

Sensor Min Max Avg
Temp
(Aussen-T/F)
11.7 °C
01-06-2017  05:25:00
35.6 °C
29-05-2017  17:30:00
19.65 °C
Feuchte
(Aussen-T/F)
29 %
29-05-2017  17:05:00
97 %
29-05-2017  04:40:00
78.89 %
Taupunkt
(Aussen-T/F)
10.3 C
31-05-2017  05:20:00
22.08 C
29-05-2017  12:20:00
15.37 C

Die Daten stammen von einer Davis Vantage Pro 2 Wetter-Station und werden unter Linux mit der Software wview2wettercgi und aufbereitet. Alle Angaben erfolgen ohne Gewähr für ihre Vollständigkeit oder Richtigkeit.
Kontakt: Rainer Krienke krienke@uni-koblenz.de . Meine Webseiten an der Uni Koblenz oder privat.
Version: $Revision: 0.78 $